PWSweather.com
Personal Weather Stations
Station Observations
BOOMEPH
Weather On The Hill Or Not, Ephrata, PA 17522

Weather On The Hill Or NotEphrata, PA 17522

Lat: 40.17243, Lon: -76.180815

Elevation: 597

Station Type: Ambient WS 1080

Latest ConditionsUpdated 7:22:01 AM EDT Tuesday, Sep 16, 2014
Currently Today's Max Today's Min Today's Average
Temperature 56.8°F13.8°C 60.1°F15.6°C 55.9°F13.3°C 57.9°F14.4°C
Dew Point 56.9°F13.8°C 59.4°F15.2°C 56.0°F13.3°C 57.6°F14.2°C
Winds Calm Calm 3.1 mph S5.0 kmh S - 0.3 mph 0.5 kmh
Wind Gusts -- 7.6 mph12.2 kmh - -
Humidity 100% 100% 93% 99%
Pressure 30.35 in1027.8 mb 30.43 in1030.5 mb 30.34 in1027.4 mb -
Precipitation - 0.19 in4.8 mm - -
Hour Temp Dew Point Humidity Winds Wind Gusts Pressure Precip Precip Rate Daily Precip Total
07:22 AM 56.8°F13.8°C 56.9°F13.8°C 100% Calm Calm -- 30.35 in1027.8 mb 0.00 in0.0 mm 0.00 in/hr0.0 mm/hr 0.19 in4.8 mm
07:21 AM 56.8°F13.8°C 56.9°F13.8°C 100% Calm Calm -- 30.35 in1027.8 mb 0.00 in0.0 mm 0.00 in/hr0.0 mm/hr 0.19 in4.8 mm
07:20 AM 56.8°F13.8°C 56.9°F13.8°C 100% Calm Calm -- 30.35 in1027.8 mb 0.00 in0.0 mm 0.00 in/hr0.0 mm/hr 0.19 in4.8 mm
07:19 AM 56.8°F13.8°C 56.9°F13.8°C 100% Calm Calm -- 30.35 in1027.8 mb 0.00 in0.0 mm 0.00 in/hr0.0 mm/hr 0.19 in4.8 mm
07:18 AM 56.8°F13.8°C 56.9°F13.8°C 100% Calm Calm -- 30.34 in1027.4 mb 0.00 in0.0 mm 0.00 in/hr0.0 mm/hr 0.19 in4.8 mm
07:17 AM 57.0°F13.9°C 57.0°F13.9°C 100% Calm Calm -- 30.35 in1027.8 mb 0.00 in0.0 mm 0.00 in/hr0.0 mm/hr 0.19 in4.8 mm
07:16 AM 57.0°F13.9°C 57.0°F13.9°C 100% Calm Calm -- 30.34 in1027.4 mb 0.00 in0.0 mm 0.00 in/hr0.0 mm/hr 0.19 in4.8 mm
07:15 AM 57.0°F13.9°C 57.0°F13.9°C 100% Calm Calm -- 30.34 in1027.4 mb 0.00 in0.0 mm 0.00 in/hr0.0 mm/hr 0.19 in4.8 mm
07:14 AM 57.0°F13.9°C 57.0°F13.9°C 100% Calm Calm -- 30.34 in1027.4 mb 0.00 in0.0 mm 0.00 in/hr0.0 mm/hr 0.19 in4.8 mm
07:13 AM 57.2°F14.0°C 57.2°F14.0°C 100% Calm Calm -- 30.34 in1027.4 mb 0.00 in0.0 mm 0.00 in/hr0.0 mm/hr 0.19 in4.8 mm
07:12 AM 57.2°F14.0°C 57.2°F14.0°C 100% Calm Calm -- 30.34 in1027.4 mb 0.00 in0.0 mm 0.00 in/hr0.0 mm/hr 0.19 in4.8 mm
07:11 AM 57.2°F14.0°C 57.2°F14.0°C 100% Calm Calm -- 30.34 in1027.4 mb 0.00 in0.0 mm 0.00 in/hr0.0 mm/hr 0.19 in4.8 mm
07:10 AM 57.2°F14.0°C 57.2°F14.0°C 100% Calm Calm -- 30.34 in1027.4 mb 0.00 in0.0 mm 0.00 in/hr0.0 mm/hr 0.19 in4.8 mm
07:09 AM 57.2°F14.0°C 57.2°F14.0°C 100% Calm Calm -- 30.34 in1027.4 mb 0.00 in0.0 mm 0.00 in/hr0.0 mm/hr 0.19 in4.8 mm
07:08 AM 57.4°F14.1°C 57.4°F14.1°C 100% Calm Calm -- 30.34 in1027.4 mb 0.00 in0.0 mm 0.00 in/hr0.0 mm/hr 0.19 in4.8 mm
07:07 AM 57.2°F14.0°C 57.2°F14.0°C 100% Calm Calm -- 30.34 in1027.4 mb 0.00 in0.0 mm 0.00 in/hr0.0 mm/hr 0.19 in4.8 mm
07:06 AM 57.2°F14.0°C 57.2°F14.0°C 100% Calm Calm -- 30.35 in1027.8 mb 0.00 in0.0 mm 0.00 in/hr0.0 mm/hr 0.19 in4.8 mm
07:05 AM 57.4°F14.1°C 57.4°F14.1°C 100% Calm Calm -- 30.35 in1027.8 mb 0.00 in0.0 mm 0.00 in/hr0.0 mm/hr 0.19 in4.8 mm
07:04 AM 57.4°F14.1°C 57.4°F14.1°C 100% Calm Calm -- 30.35 in1027.8 mb 0.00 in0.0 mm 0.00 in/hr0.0 mm/hr 0.19 in4.8 mm
07:03 AM 57.4°F14.1°C 57.4°F14.1°C 100% Calm Calm -- 30.34 in1027.4 mb 0.00 in0.0 mm 0.00 in/hr0.0 mm/hr 0.19 in4.8 mm
07:02 AM 57.2°F14.0°C 57.2°F14.0°C 100% Calm Calm -- 30.35 in1027.8 mb 0.00 in0.0 mm 0.00 in/hr0.0 mm/hr 0.19 in4.8 mm
07:01 AM 57.4°F14.1°C 57.4°F14.1°C 100% Calm Calm -- 30.35 in1027.8 mb 0.00 in0.0 mm 0.00 in/hr0.0 mm/hr 0.19 in4.8 mm
07:00 AM 57.4°F14.1°C 57.4°F14.1°C 100% Calm Calm -- 30.35 in1027.8 mb 0.00 in0.0 mm 0.00 in/hr0.0 mm/hr 0.19 in4.8 mm
06:59 AM 57.4°F14.1°C 57.4°F14.1°C 100% Calm Calm -- 30.35 in1027.8 mb 0.00 in0.0 mm 0.00 in/hr0.0 mm/hr 0.19 in4.8 mm
06:58 AM 57.2°F14.0°C 57.2°F14.0°C 100% Calm Calm -- 30.35 in1027.8 mb 0.00 in0.0 mm 0.00 in/hr0.0 mm/hr 0.19 in4.8 mm
06:57 AM 57.2°F14.0°C 57.2°F14.0°C 100% Calm Calm -- 30.35 in1027.8 mb 0.00 in0.0 mm 0.00 in/hr0.0 mm/hr 0.19 in4.8 mm
06:56 AM 57.2°F14.0°C 57.2°F14.0°C 100% Calm Calm -- 30.35 in1027.8 mb 0.00 in0.0 mm 0.00 in/hr0.0 mm/hr 0.19 in4.8 mm
06:55 AM 57.2°F14.0°C 57.2°F14.0°C 100% Calm Calm -- 30.35 in1027.8 mb 0.00 in0.0 mm 0.00 in/hr0.0 mm/hr 0.19 in4.8 mm
06:54 AM 57.4°F14.1°C 57.4°F14.1°C 100% Calm Calm -- 30.35 in1027.8 mb 0.00 in0.0 mm 0.00 in/hr0.0 mm/hr 0.19 in4.8 mm
06:53 AM 57.4°F14.1°C 57.4°F14.1°C 100% Calm Calm -- 30.35 in1027.8 mb 0.00 in0.0 mm 0.00 in/hr0.0 mm/hr 0.19 in4.8 mm
06:52 AM 57.4°F14.1°C 57.4°F14.1°C 100% Calm Calm -- 30.35 in1027.8 mb 0.00 in0.0 mm 0.00 in/hr0.0 mm/hr 0.19 in4.8 mm
06:51 AM 57.4°F14.1°C 57.4°F14.1°C 100% Calm Calm -- 30.35 in1027.8 mb 0.00 in0.0 mm 0.00 in/hr0.0 mm/hr 0.19 in4.8 mm
06:50 AM 57.4°F14.1°C 57.4°F14.1°C 100% Calm Calm -- 30.35 in1027.8 mb 0.00 in0.0 mm 0.00 in/hr0.0 mm/hr 0.19 in4.8 mm
06:49 AM 57.4°F14.1°C 57.4°F14.1°C 100% Calm Calm -- 30.35 in1027.8 mb 0.00 in0.0 mm 0.00 in/hr0.0 mm/hr 0.19 in4.8 mm
06:48 AM 57.6°F14.2°C 57.6°F14.2°C 100% Calm Calm -- 30.35 in1027.8 mb 0.00 in0.0 mm 0.00 in/hr0.0 mm/hr 0.19 in4.8 mm
06:47 AM 57.4°F14.1°C 57.4°F14.1°C 100% Calm Calm -- 30.36 in1028.1 mb 0.00 in0.0 mm 0.00 in/hr0.0 mm/hr 0.19 in4.8 mm
06:46 AM 57.4°F14.1°C 57.4°F14.1°C 100% Calm Calm -- 30.35 in1027.8 mb 0.00 in0.0 mm 0.00 in/hr0.0 mm/hr 0.19 in4.8 mm
06:45 AM 57.4°F14.1°C 57.4°F14.1°C 100% Calm Calm -- 30.35 in1027.8 mb 0.00 in0.0 mm 0.00 in/hr0.0 mm/hr 0.19 in4.8 mm
06:44 AM 57.4°F14.1°C 57.4°F14.1°C 100% Calm Calm -- 30.35 in1027.8 mb 0.00 in0.0 mm 0.00 in/hr0.0 mm/hr 0.19 in4.8 mm
06:43 AM 57.4°F14.1°C 57.4°F14.1°C 100% Calm Calm -- 30.35 in1027.8 mb 0.00 in0.0 mm 0.00 in/hr0.0 mm/hr 0.19 in4.8 mm
06:42 AM 57.6°F14.2°C 57.6°F14.2°C 100% Calm Calm -- 30.35 in1027.8 mb 0.00 in0.0 mm 0.00 in/hr0.0 mm/hr 0.19 in4.8 mm
06:41 AM 57.6°F14.2°C 57.6°F14.2°C 100% Calm Calm -- 30.35 in1027.8 mb 0.00 in0.0 mm 0.00 in/hr0.0 mm/hr 0.19 in4.8 mm
06:40 AM 57.7°F14.3°C 57.8°F14.3°C 100% Calm Calm -- 30.35 in1027.8 mb 0.00 in0.0 mm 0.00 in/hr0.0 mm/hr 0.19 in4.8 mm
06:39 AM 57.6°F14.2°C 57.6°F14.2°C 100% Calm Calm -- 30.35 in1027.8 mb 0.00 in0.0 mm 0.00 in/hr0.0 mm/hr 0.19 in4.8 mm
06:38 AM 57.6°F14.2°C 57.6°F14.2°C 100% Calm Calm -- 30.35 in1027.8 mb 0.00 in0.0 mm 0.00 in/hr0.0 mm/hr 0.19 in4.8 mm
06:37 AM 57.6°F14.2°C 57.6°F14.2°C 100% Calm Calm -- 30.35 in1027.8 mb 0.00 in0.0 mm 0.00 in/hr0.0 mm/hr 0.19 in4.8 mm
06:36 AM 57.6°F14.2°C 57.6°F14.2°C 100% Calm Calm -- 30.35 in1027.8 mb 0.00 in0.0 mm 0.00 in/hr0.0 mm/hr 0.19 in4.8 mm
06:35 AM 57.6°F14.2°C 57.6°F14.2°C 100% Calm Calm -- 30.36 in1028.1 mb 0.00 in0.0 mm 0.00 in/hr0.0 mm/hr 0.19 in4.8 mm
06:34 AM 57.9°F14.4°C 57.9°F14.4°C 100% Calm Calm -- 30.36 in1028.1 mb 0.00 in0.0 mm 0.00 in/hr0.0 mm/hr 0.19 in4.8 mm
06:33 AM 57.7°F14.3°C 57.8°F14.3°C 100% Calm Calm -- 30.36 in1028.1 mb 0.00 in0.0 mm 0.00 in/hr0.0 mm/hr 0.19 in4.8 mm
06:32 AM 57.6°F14.2°C 57.6°F14.2°C 100% Calm Calm -- 30.36 in1028.1 mb 0.00 in0.0 mm 0.00 in/hr0.0 mm/hr 0.19 in4.8 mm
06:31 AM 57.6°F14.2°C 57.6°F14.2°C 100% Calm Calm -- 30.36 in1028.1 mb 0.00 in0.0 mm 0.00 in/hr0.0 mm/hr 0.19 in4.8 mm
06:30 AM 57.4°F14.1°C 57.4°F14.1°C 100% Calm Calm -- 30.36 in1028.1 mb 0.00 in0.0 mm 0.00 in/hr0.0 mm/hr 0.19 in4.8 mm
06:29 AM 57.4°F14.1°C 57.4°F14.1°C 100% Calm Calm -- 30.36 in1028.1 mb 0.00 in0.0 mm 0.00 in/hr0.0 mm/hr 0.19 in4.8 mm
06:28 AM 57.4°F14.1°C 57.4°F14.1°C 100% Calm Calm -- 30.36 in1028.1 mb 0.00 in0.0 mm 0.00 in/hr0.0 mm/hr 0.19 in4.8 mm
06:27 AM 57.4°F14.1°C 57.4°F14.1°C 100% Calm Calm -- 30.36 in1028.1 mb 0.00 in0.0 mm 0.00 in/hr0.0 mm/hr 0.19 in4.8 mm
06:26 AM 57.6°F14.2°C 57.6°F14.2°C 100% Calm Calm -- 30.36 in1028.1 mb 0.02 in0.5 mm 0.00 in/hr0.0 mm/hr 0.19 in4.8 mm
06:25 AM 57.6°F14.2°C 57.6°F14.2°C 100% Calm Calm -- 30.36 in1028.1 mb 0.02 in0.5 mm 0.00 in/hr0.0 mm/hr 0.19 in4.8 mm
06:24 AM 57.6°F14.2°C 57.6°F14.2°C 100% Calm Calm -- 30.36 in1028.1 mb 0.02 in0.5 mm 0.00 in/hr0.0 mm/hr 0.19 in4.8 mm
06:23 AM 57.6°F14.2°C 57.6°F14.2°C 100% Calm Calm -- 30.36 in1028.1 mb 0.02 in0.5 mm 0.00 in/hr0.0 mm/hr 0.19 in4.8 mm
06:22 AM 57.7°F14.3°C 57.8°F14.3°C 100% Calm Calm -- 30.36 in1028.1 mb 0.02 in0.5 mm 0.00 in/hr0.0 mm/hr 0.19 in4.8 mm
06:21 AM 57.7°F14.3°C 57.8°F14.3°C 100% Calm Calm -- 30.36 in1028.1 mb 0.02 in0.5 mm 0.00 in/hr0.0 mm/hr 0.19 in4.8 mm
06:20 AM 57.7°F14.3°C 57.8°F14.3°C 100% Calm Calm -- 30.36 in1028.1 mb 0.02 in0.5 mm 0.00 in/hr0.0 mm/hr 0.19 in4.8 mm
06:19 AM 57.7°F14.3°C 57.8°F14.3°C 100% Calm Calm -- 30.36 in1028.1 mb 0.02 in0.5 mm 0.00 in/hr0.0 mm/hr 0.19 in4.8 mm
06:18 AM 57.9°F14.4°C 57.9°F14.4°C 100% Calm Calm -- 30.36 in1028.1 mb 0.02 in0.5 mm 0.00 in/hr0.0 mm/hr 0.19 in4.8 mm
06:17 AM 57.9°F14.4°C 57.9°F14.4°C 100% Calm Calm -- 30.36 in1028.1 mb 0.02 in0.5 mm 0.00 in/hr0.0 mm/hr 0.19 in4.8 mm
06:16 AM 57.9°F14.4°C 57.9°F14.4°C 100% Calm Calm -- 30.36 in1028.1 mb 0.02 in0.5 mm 0.00 in/hr0.0 mm/hr 0.19 in4.8 mm
06:15 AM 57.9°F14.4°C 57.9°F14.4°C 100% Calm Calm -- 30.36 in1028.1 mb 0.02 in0.5 mm 0.00 in/hr0.0 mm/hr 0.19 in4.8 mm
06:14 AM 57.9°F14.4°C 57.9°F14.4°C 100% Calm Calm -- 30.36 in1028.1 mb 0.02 in0.5 mm 0.00 in/hr0.0 mm/hr 0.19 in4.8 mm
06:13 AM 57.9°F14.4°C 57.9°F14.4°C 100% Calm Calm -- 30.36 in1028.1 mb 0.02 in0.5 mm 0.00 in/hr0.0 mm/hr 0.19 in4.8 mm
06:12 AM 57.7°F14.3°C 57.8°F14.3°C 100% Calm Calm -- 30.36 in1028.1 mb 0.02 in0.5 mm 0.00 in/hr0.0 mm/hr 0.19 in4.8 mm
06:11 AM 57.7°F14.3°C 57.8°F14.3°C 100% Calm Calm -- 30.36 in1028.1 mb 0.02 in0.5 mm 0.00 in/hr0.0 mm/hr 0.19 in4.8 mm
06:10 AM 57.7°F14.3°C 57.8°F14.3°C 100% Calm Calm -- 30.36 in1028.1 mb 0.02 in0.5 mm 0.00 in/hr0.0 mm/hr 0.19 in4.8 mm
06:09 AM 57.9°F14.4°C 57.9°F14.4°C 100% Calm Calm -- 30.36 in1028.1 mb 0.02 in0.5 mm 0.00 in/hr0.0 mm/hr 0.19 in4.8 mm
06:08 AM 57.9°F14.4°C 57.9°F14.4°C 100% Calm Calm -- 30.36 in1028.1 mb 0.02 in0.5 mm 0.00 in/hr0.0 mm/hr 0.19 in4.8 mm
06:07 AM 57.7°F14.3°C 57.8°F14.3°C 100% Calm Calm -- 30.36 in1028.1 mb 0.02 in0.5 mm 0.00 in/hr0.0 mm/hr 0.19 in4.8 mm
06:06 AM 57.7°F14.3°C 57.8°F14.3°C 100% Calm Calm -- 30.36 in1028.1 mb 0.02 in0.5 mm 0.00 in/hr0.0 mm/hr 0.19 in4.8 mm
06:05 AM 57.7°F14.3°C 57.8°F14.3°C 100% Calm Calm -- 30.36 in1028.1 mb 0.02 in0.5 mm 0.00 in/hr0.0 mm/hr 0.19 in4.8 mm
06:04 AM 57.7°F14.3°C 57.8°F14.3°C 100% Calm Calm -- 30.35 in1027.8 mb 0.02 in0.5 mm 0.00 in/hr0.0 mm/hr 0.19 in4.8 mm
06:03 AM 57.7°F14.3°C 57.8°F14.3°C 100% Calm Calm -- 30.35 in1027.8 mb 0.02 in0.5 mm 0.00 in/hr0.0 mm/hr 0.19 in4.8 mm
06:02 AM 57.7°F14.3°C 57.8°F14.3°C 100% Calm Calm -- 30.35 in1027.8 mb 0.02 in0.5 mm 0.00 in/hr0.0 mm/hr 0.19 in4.8 mm
06:01 AM 57.7°F14.3°C 57.8°F14.3°C 100% Calm Calm -- 30.36 in1028.1 mb 0.02 in0.5 mm 0.00 in/hr0.0 mm/hr 0.19 in4.8 mm
06:00 AM 57.7°F14.3°C 57.8°F14.3°C 100% Calm Calm -- 30.35 in1027.8 mb 0.02 in0.5 mm 0.00 in/hr0.0 mm/hr 0.19 in4.8 mm
05:59 AM 57.7°F14.3°C 57.8°F14.3°C 100% Calm Calm -- 30.35 in1027.8 mb 0.02 in0.5 mm 0.00 in/hr0.0 mm/hr 0.19 in4.8 mm
05:58 AM 57.7°F14.3°C 57.8°F14.3°C 100% Calm Calm -- 30.35 in1027.8 mb 0.02 in0.5 mm 0.00 in/hr0.0 mm/hr 0.19 in4.8 mm
05:57 AM 57.7°F14.3°C 57.8°F14.3°C 100% Calm Calm -- 30.36 in1028.1 mb 0.02 in0.5 mm 0.00 in/hr0.0 mm/hr 0.19 in4.8 mm
05:56 AM 57.7°F14.3°C 57.8°F14.3°C 100% Calm Calm -- 30.36 in1028.1 mb 0.02 in0.5 mm 0.00 in/hr0.0 mm/hr 0.19 in4.8 mm
05:55 AM 57.7°F14.3°C 57.8°F14.3°C 100% Calm Calm -- 30.35 in1027.8 mb 0.02 in0.5 mm 0.00 in/hr0.0 mm/hr 0.19 in4.8 mm
05:54 AM 57.7°F14.3°C 57.8°F14.3°C 100% Calm Calm -- 30.35 in1027.8 mb 0.02 in0.5 mm 0.00 in/hr0.0 mm/hr 0.19 in4.8 mm
05:53 AM 57.7°F14.3°C 57.8°F14.3°C 100% Calm Calm -- 30.35 in1027.8 mb 0.02 in0.5 mm 0.00 in/hr0.0 mm/hr 0.19 in4.8 mm
05:52 AM 57.6°F14.2°C 57.6°F14.2°C 100% Calm Calm -- 30.35 in1027.8 mb 0.02 in0.5 mm 0.00 in/hr0.0 mm/hr 0.19 in4.8 mm
05:51 AM 57.6°F14.2°C 57.6°F14.2°C 100% Calm Calm -- 30.35 in1027.8 mb 0.02 in0.5 mm 0.00 in/hr0.0 mm/hr 0.19 in4.8 mm
05:50 AM 57.6°F14.2°C 57.6°F14.2°C 100% Calm Calm -- 30.35 in1027.8 mb 0.02 in0.5 mm 0.00 in/hr0.0 mm/hr 0.19 in4.8 mm
05:49 AM 57.6°F14.2°C 57.6°F14.2°C 100% Calm Calm -- 30.35 in1027.8 mb 0.02 in0.5 mm 0.00 in/hr0.0 mm/hr 0.19 in4.8 mm
05:48 AM 57.6°F14.2°C 57.6°F14.2°C 100% Calm Calm -- 30.35 in1027.8 mb 0.02 in0.5 mm 0.00 in/hr0.0 mm/hr 0.19 in4.8 mm
05:47 AM 57.6°F14.2°C 57.6°F14.2°C 100% Calm Calm -- 30.35 in1027.8 mb 0.02 in0.5 mm 0.00 in/hr0.0 mm/hr 0.19 in4.8 mm
05:46 AM 57.4°F14.1°C 57.4°F14.1°C 100% Calm Calm -- 30.35 in1027.8 mb 0.02 in0.5 mm 0.00 in/hr0.0 mm/hr 0.19 in4.8 mm
05:45 AM 57.4°F14.1°C 57.4°F14.1°C 100% Calm Calm -- 30.35 in1027.8 mb 0.02 in0.5 mm 0.00 in/hr0.0 mm/hr 0.19 in4.8 mm
05:44 AM 57.4°F14.1°C 57.4°F14.1°C 100% Calm Calm -- 30.36 in1028.1 mb 0.02 in0.5 mm 0.00 in/hr0.0 mm/hr 0.19 in4.8 mm
05:43 AM 57.4°F14.1°C 57.4°F14.1°C 100% Calm Calm -- 30.35 in1027.8 mb 0.02 in0.5 mm 0.00 in/hr0.0 mm/hr 0.19 in4.8 mm
05:42 AM 57.4°F14.1°C 57.4°F14.1°C 100% Calm Calm -- 30.35 in1027.8 mb 0.02 in0.5 mm 0.00 in/hr0.0 mm/hr 0.19 in4.8 mm
05:41 AM 57.4°F14.1°C 57.4°F14.1°C 100% Calm Calm -- 30.35 in1027.8 mb 0.02 in0.5 mm 0.00 in/hr0.0 mm/hr 0.19 in4.8 mm
05:40 AM 57.4°F14.1°C 57.4°F14.1°C 100% Calm Calm -- 30.36 in1028.1 mb 0.02 in0.5 mm 0.00 in/hr0.0 mm/hr 0.19 in4.8 mm
05:39 AM 57.4°F14.1°C 57.4°F14.1°C 100% Calm Calm -- 30.36 in1028.1 mb 0.02 in0.5 mm 0.00 in/hr0.0 mm/hr 0.19 in4.8 mm
05:38 AM 57.4°F14.1°C 57.4°F14.1°C 100% Calm Calm -- 30.36 in1028.1 mb 0.02 in0.5 mm 0.00 in/hr0.0 mm/hr 0.19 in4.8 mm
05:37 AM 57.4°F14.1°C 57.4°F14.1°C 100% Calm Calm -- 30.36 in1028.1 mb 0.02 in0.5 mm 0.00 in/hr0.0 mm/hr 0.19 in4.8 mm
05:36 AM 57.2°F14.0°C 57.2°F14.0°C 100% Calm Calm -- 30.36 in1028.1 mb 0.02 in0.5 mm 0.00 in/hr0.0 mm/hr 0.19 in4.8 mm
05:35 AM 57.2°F14.0°C 57.2°F14.0°C 100% Calm Calm -- 30.35 in1027.8 mb 0.02 in0.5 mm 0.00 in/hr0.0 mm/hr 0.19 in4.8 mm
05:34 AM 57.2°F14.0°C 57.2°F14.0°C 100% Calm Calm -- 30.35 in1027.8 mb 0.02 in0.5 mm 0.00 in/hr0.0 mm/hr 0.19 in4.8 mm
05:33 AM 57.2°F14.0°C 57.2°F14.0°C 100% Calm Calm -- 30.35 in1027.8 mb 0.02 in0.5 mm 0.00 in/hr0.0 mm/hr 0.19 in4.8 mm
05:32 AM 57.2°F14.0°C 57.2°F14.0°C 100% Calm Calm -- 30.35 in1027.8 mb 0.02 in0.5 mm 0.00 in/hr0.0 mm/hr 0.19 in4.8 mm
05:31 AM 57.2°F14.0°C 57.2°F14.0°C 100% Calm Calm -- 30.35 in1027.8 mb 0.02 in0.5 mm 0.00 in/hr0.0 mm/hr 0.19 in4.8 mm
05:30 AM 57.2°F14.0°C 57.2°F14.0°C 100% Calm Calm -- 30.35 in1027.8 mb 0.02 in0.5 mm 0.00 in/hr0.0 mm/hr 0.19 in4.8 mm
05:29 AM 57.2°F14.0°C 57.2°F14.0°C 100% Calm Calm -- 30.35 in1027.8 mb 0.02 in0.5 mm 0.00 in/hr0.0 mm/hr 0.19 in4.8 mm
05:28 AM 57.2°F14.0°C 57.2°F14.0°C 100% Calm Calm -- 30.35 in1027.8 mb 0.02 in0.5 mm 0.00 in/hr0.0 mm/hr 0.19 in4.8 mm
05:27 AM 57.2°F14.0°C 57.2°F14.0°C 100% Calm Calm -- 30.35 in1027.8 mb 0.02 in0.5 mm 1.20 in/hr30.5 mm/hr 0.19 in4.8 mm
05:26 AM 57.2°F14.0°C 57.2°F14.0°C 100% Calm Calm -- 30.36 in1028.1 mb 0.00 in0.0 mm 0.00 in/hr0.0 mm/hr 0.17 in4.3 mm
05:25 AM 57.2°F14.0°C 57.2°F14.0°C 100% Calm Calm -- 30.36 in1028.1 mb 0.00 in0.0 mm 0.00 in/hr0.0 mm/hr 0.17 in4.3 mm
05:24 AM 57.2°F14.0°C 57.2°F14.0°C 100% Calm Calm -- 30.36 in1028.1 mb 0.00 in0.0 mm 0.00 in/hr0.0 mm/hr 0.17 in4.3 mm
05:23 AM 57.2°F14.0°C 57.2°F14.0°C 100% Calm Calm -- 30.35 in1027.8 mb 0.00 in0.0 mm 0.00 in/hr0.0 mm/hr 0.17 in4.3 mm
05:22 AM 57.2°F14.0°C 57.2°F14.0°C 100% Calm Calm -- 30.36 in1028.1 mb 0.00 in0.0 mm 0.00 in/hr0.0 mm/hr 0.17 in4.3 mm
05:21 AM 57.4°F14.1°C 57.4°F14.1°C 100% Calm Calm -- 30.35 in1027.8 mb 0.00 in0.0 mm 0.00 in/hr0.0 mm/hr 0.17 in4.3 mm
05:20 AM 57.4°F14.1°C 57.4°F14.1°C 100% Calm Calm -- 30.36 in1028.1 mb 0.00 in0.0 mm 0.00 in/hr0.0 mm/hr 0.17 in4.3 mm
05:19 AM 57.4°F14.1°C 57.4°F14.1°C 100% Calm Calm -- 30.35 in1027.8 mb 0.00 in0.0 mm 0.00 in/hr0.0 mm/hr 0.17 in4.3 mm
05:18 AM 57.4°F14.1°C 57.4°F14.1°C 100% Calm Calm -- 30.36 in1028.1 mb 0.00 in0.0 mm 0.00 in/hr0.0 mm/hr 0.17 in4.3 mm
05:17 AM 57.2°F14.0°C 57.2°F14.0°C 100% Calm Calm -- 30.36 in1028.1 mb 0.00 in0.0 mm 0.00 in/hr0.0 mm/hr 0.17 in4.3 mm
05:16 AM 57.2°F14.0°C 57.2°F14.0°C 100% Calm Calm -- 30.36 in1028.1 mb 0.00 in0.0 mm 0.00 in/hr0.0 mm/hr 0.17 in4.3 mm
05:15 AM 57.2°F14.0°C 57.2°F14.0°C 100% Calm Calm -- 30.36 in1028.1 mb 0.00 in0.0 mm 0.00 in/hr0.0 mm/hr 0.17 in4.3 mm
05:14 AM 57.0°F13.9°C 57.0°F13.9°C 100% Calm Calm -- 30.36 in1028.1 mb 0.00 in0.0 mm 0.00 in/hr0.0 mm/hr 0.17 in4.3 mm
05:13 AM 57.0°F13.9°C 57.0°F13.9°C 100% Calm Calm -- 30.36 in1028.1 mb 0.00 in0.0 mm 0.00 in/hr0.0 mm/hr 0.17 in4.3 mm
05:12 AM 57.0°F13.9°C 57.0°F13.9°C 100% Calm Calm -- 30.36 in1028.1 mb 0.00 in0.0 mm 0.00 in/hr0.0 mm/hr 0.17 in4.3 mm
05:11 AM 57.0°F13.9°C 57.0°F13.9°C 100% Calm Calm -- 30.36 in1028.1 mb 0.00 in0.0 mm 0.00 in/hr0.0 mm/hr 0.17 in4.3 mm
05:10 AM 57.0°F13.9°C 57.0°F13.9°C 100% Calm Calm -- 30.36 in1028.1 mb 0.00 in0.0 mm 0.00 in/hr0.0 mm/hr 0.17 in4.3 mm
05:09 AM 57.0°F13.9°C 57.0°F13.9°C 100% Calm Calm -- 30.35 in1027.8 mb 0.00 in0.0 mm 0.00 in/hr0.0 mm/hr 0.17 in4.3 mm
05:08 AM 56.8°F13.8°C 56.9°F13.8°C 100% Calm Calm -- 30.36 in1028.1 mb 0.00 in0.0 mm 0.00 in/hr0.0 mm/hr 0.17 in4.3 mm
05:07 AM 56.8°F13.8°C 56.9°F13.8°C 100% Calm Calm -- 30.36 in1028.1 mb 0.02 in0.5 mm 0.00 in/hr0.0 mm/hr 0.17 in4.3 mm
05:06 AM 56.8°F13.8°C 56.9°F13.8°C 100% Calm Calm -- 30.36 in1028.1 mb 0.02 in0.5 mm 0.00 in/hr0.0 mm/hr 0.17 in4.3 mm
05:05 AM 56.8°F13.8°C 56.9°F13.8°C 100% Calm Calm -- 30.36 in1028.1 mb 0.17 in4.3 mm 0.00 in/hr0.0 mm/hr 0.17 in4.3 mm
05:04 AM 56.8°F13.8°C 56.9°F13.8°C 100% Calm Calm -- 30.36 in1028.1 mb 0.17 in4.3 mm 0.00 in/hr0.0 mm/hr 0.17 in4.3 mm
05:03 AM 56.7°F13.7°C 56.7°F13.7°C 100% Calm Calm -- 30.36 in1028.1 mb 0.17 in4.3 mm 0.00 in/hr0.0 mm/hr 0.17 in4.3 mm
05:02 AM 56.7°F13.7°C 56.7°F13.7°C 100% Calm Calm -- 30.35 in1027.8 mb 0.17 in4.3 mm 0.00 in/hr0.0 mm/hr 0.17 in4.3 mm
05:01 AM 56.7°F13.7°C 56.7°F13.7°C 100% Calm Calm -- 30.36 in1028.1 mb 0.17 in4.3 mm 0.00 in/hr0.0 mm/hr 0.17 in4.3 mm
05:00 AM 56.7°F13.7°C 56.7°F13.7°C 100% Calm Calm -- 30.36 in1028.1 mb 0.17 in4.3 mm 0.00 in/hr0.0 mm/hr 0.17 in4.3 mm
04:59 AM 56.5°F13.6°C 56.5°F13.6°C 100% Calm Calm -- 30.35 in1027.8 mb 0.17 in4.3 mm 0.00 in/hr0.0 mm/hr 0.17 in4.3 mm
04:58 AM 56.5°F13.6°C 56.5°F13.6°C 100% Calm Calm -- 30.35 in1027.8 mb 0.17 in4.3 mm 0.00 in/hr0.0 mm/hr 0.17 in4.3 mm
04:57 AM 56.5°F13.6°C 56.5°F13.6°C 100% Calm Calm -- 30.35 in1027.8 mb 0.17 in4.3 mm 0.00 in/hr0.0 mm/hr 0.17 in4.3 mm
04:56 AM 56.5°F13.6°C 56.5°F13.6°C 100% Calm Calm -- 30.35 in1027.8 mb 0.17 in4.3 mm 0.00 in/hr0.0 mm/hr 0.17 in4.3 mm
04:55 AM 56.7°F13.7°C 56.7°F13.7°C 100% Calm Calm -- 30.36 in1028.1 mb 0.17 in4.3 mm 0.00 in/hr0.0 mm/hr 0.17 in4.3 mm
04:54 AM 56.5°F13.6°C 56.5°F13.6°C 100% Calm Calm -- 30.36 in1028.1 mb 0.17 in4.3 mm 0.00 in/hr0.0 mm/hr 0.17 in4.3 mm
04:53 AM 56.5°F13.6°C 56.5°F13.6°C 100% Calm Calm -- 30.36 in1028.1 mb 0.17 in4.3 mm 0.00 in/hr0.0 mm/hr 0.17 in4.3 mm
04:52 AM 56.5°F13.6°C 56.5°F13.6°C 100% Calm Calm -- 30.35 in1027.8 mb 0.17 in4.3 mm 0.00 in/hr0.0 mm/hr 0.17 in4.3 mm
04:51 AM 56.5°F13.6°C 56.5°F13.6°C 100% Calm Calm -- 30.35 in1027.8 mb 0.17 in4.3 mm 0.00 in/hr0.0 mm/hr 0.17 in4.3 mm
04:50 AM 56.5°F13.6°C 56.5°F13.6°C 100% Calm Calm -- 30.35 in1027.8 mb 0.17 in4.3 mm 0.00 in/hr0.0 mm/hr 0.17 in4.3 mm
04:49 AM 56.5°F13.6°C 56.5°F13.6°C 100% Calm Calm -- 30.35 in1027.8 mb 0.17 in4.3 mm 0.00 in/hr0.0 mm/hr 0.17 in4.3 mm
04:48 AM 56.5°F13.6°C 56.5°F13.6°C 100% Calm Calm -- 30.35 in1027.8 mb 0.17 in4.3 mm 0.00 in/hr0.0 mm/hr 0.17 in4.3 mm
04:47 AM 56.5°F13.6°C 56.5°F13.6°C 100% Calm Calm 1.6 mph2.6 kmh 30.35 in1027.8 mb 0.17 in4.3 mm 0.00 in/hr0.0 mm/hr 0.17 in4.3 mm
04:46 AM 56.5°F13.6°C 56.5°F13.6°C 100% Calm Calm 1.6 mph2.6 kmh 30.35 in1027.8 mb 0.17 in4.3 mm 0.00 in/hr0.0 mm/hr 0.17 in4.3 mm
04:45 AM 56.5°F13.6°C 56.5°F13.6°C 100% Calm Calm 1.6 mph2.6 kmh 30.35 in1027.8 mb 0.17 in4.3 mm 0.00 in/hr0.0 mm/hr 0.17 in4.3 mm
04:44 AM 56.5°F13.6°C 56.5°F13.6°C 100% Calm Calm 1.6 mph2.6 kmh 30.35 in1027.8 mb 0.17 in4.3 mm 0.00 in/hr0.0 mm/hr 0.17 in4.3 mm
04:43 AM 56.5°F13.6°C 56.5°F13.6°C 100% Calm Calm 1.6 mph2.6 kmh 30.35 in1027.8 mb 0.17 in4.3 mm 0.00 in/hr0.0 mm/hr 0.17 in4.3 mm
04:42 AM 56.5°F13.6°C 56.5°F13.6°C 100% Calm Calm 1.6 mph2.6 kmh 30.35 in1027.8 mb 0.17 in4.3 mm 0.00 in/hr0.0 mm/hr 0.17 in4.3 mm
04:41 AM 56.5°F13.6°C 56.5°F13.6°C 100% Calm Calm 2.2 mph3.5 kmh 30.35 in1027.8 mb 0.17 in4.3 mm 0.00 in/hr0.0 mm/hr 0.17 in4.3 mm
04:40 AM 56.5°F13.6°C 56.5°F13.6°C 100% Calm Calm 2.2 mph3.5 kmh 30.35 in1027.8 mb 0.17 in4.3 mm 0.00 in/hr0.0 mm/hr 0.17 in4.3 mm
04:39 AM 56.7°F13.7°C 56.7°F13.7°C 100% Calm Calm 2.2 mph3.5 kmh 30.35 in1027.8 mb 0.17 in4.3 mm 0.00 in/hr0.0 mm/hr 0.17 in4.3 mm
04:38 AM 57.0°F13.9°C 57.0°F13.9°C 100% Calm Calm 2.2 mph3.5 kmh 30.35 in1027.8 mb 0.17 in4.3 mm 0.00 in/hr0.0 mm/hr 0.17 in4.3 mm
04:37 AM 57.0°F13.9°C 57.0°F13.9°C 100% 0.7 mph NW1.1 kmh NW 2.2 mph3.5 kmh 30.35 in1027.8 mb 0.17 in4.3 mm 0.00 in/hr0.0 mm/hr 0.17 in4.3 mm
04:36 AM 57.0°F13.9°C 57.0°F13.9°C 100% 0.7 mph NW1.1 kmh NW 2.2 mph3.5 kmh 30.35 in1027.8 mb 0.17 in4.3 mm 0.00 in/hr0.0 mm/hr 0.17 in4.3 mm
04:35 AM 57.2°F14.0°C 57.2°F14.0°C 100% Calm Calm 2.2 mph3.5 kmh 30.35 in1027.8 mb 0.17 in4.3 mm 0.00 in/hr0.0 mm/hr 0.17 in4.3 mm
04:34 AM 57.2°F14.0°C 57.2°F14.0°C 100% Calm Calm 2.2 mph3.5 kmh 30.35 in1027.8 mb 0.17 in4.3 mm 0.00 in/hr0.0 mm/hr 0.17 in4.3 mm
04:33 AM 57.2°F14.0°C 57.2°F14.0°C 100% Calm Calm 2.2 mph3.5 kmh 30.35 in1027.8 mb 0.17 in4.3 mm 0.00 in/hr0.0 mm/hr 0.17 in4.3 mm
04:32 AM 57.2°F14.0°C 57.2°F14.0°C 100% 0.7 mph NW1.1 kmh NW 2.2 mph3.5 kmh 30.35 in1027.8 mb 0.17 in4.3 mm 0.00 in/hr0.0 mm/hr 0.17 in4.3 mm
04:31 AM 57.2°F14.0°C 57.2°F14.0°C 100% Calm Calm 1.6 mph2.6 kmh 30.35 in1027.8 mb 0.17 in4.3 mm 0.00 in/hr0.0 mm/hr 0.17 in4.3 mm
04:30 AM 57.4°F14.1°C 57.4°F14.1°C 100% 0.7 mph NW1.1 kmh NW 2.2 mph3.5 kmh 30.35 in1027.8 mb 0.17 in4.3 mm 0.00 in/hr0.0 mm/hr 0.17 in4.3 mm
04:29 AM 57.4°F14.1°C 57.4°F14.1°C 100% Calm Calm 2.2 mph3.5 kmh 30.35 in1027.8 mb 0.17 in4.3 mm 0.00 in/hr0.0 mm/hr 0.17 in4.3 mm
04:28 AM 57.4°F14.1°C 57.4°F14.1°C 100% Calm Calm 2.2 mph3.5 kmh 30.35 in1027.8 mb 0.17 in4.3 mm 0.00 in/hr0.0 mm/hr 0.17 in4.3 mm
04:27 AM 57.4°F14.1°C 57.4°F14.1°C 100% Calm Calm 3.1 mph5.0 kmh 30.35 in1027.8 mb 0.17 in4.3 mm 0.00 in/hr0.0 mm/hr 0.17 in4.3 mm
04:26 AM 57.6°F14.2°C 57.6°F14.2°C 100% Calm Calm 3.1 mph5.0 kmh 30.35 in1027.8 mb 0.17 in4.3 mm 0.00 in/hr0.0 mm/hr 0.17 in4.3 mm
04:25 AM 57.4°F14.1°C 57.4°F14.1°C 100% 0.7 mph N1.1 kmh N 3.1 mph5.0 kmh 30.35 in1027.8 mb 0.17 in4.3 mm 0.00 in/hr0.0 mm/hr 0.17 in4.3 mm
04:24 AM 57.4°F14.1°C 57.4°F14.1°C 100% Calm Calm 3.1 mph5.0 kmh 30.35 in1027.8 mb 0.17 in4.3 mm 0.00 in/hr0.0 mm/hr 0.17 in4.3 mm
04:23 AM 57.4°F14.1°C 57.4°F14.1°C 100% Calm Calm 3.1 mph5.0 kmh 30.35 in1027.8 mb 0.17 in4.3 mm 0.00 in/hr0.0 mm/hr 0.17 in4.3 mm
04:22 AM 57.4°F14.1°C 57.4°F14.1°C 100% Calm Calm 3.1 mph5.0 kmh 30.35 in1027.8 mb 0.17 in4.3 mm 0.00 in/hr0.0 mm/hr 0.17 in4.3 mm
04:21 AM 57.4°F14.1°C 57.4°F14.1°C 100% 0.7 mph N1.1 kmh N 3.1 mph5.0 kmh 30.35 in1027.8 mb 0.17 in4.3 mm 0.00 in/hr0.0 mm/hr 0.17 in4.3 mm
04:20 AM 57.9°F14.4°C 57.9°F14.4°C 100% 1.6 mph N2.6 kmh N 3.1 mph5.0 kmh 30.35 in1027.8 mb 0.17 in4.3 mm 0.00 in/hr0.0 mm/hr 0.17 in4.3 mm
04:19 AM 57.7°F14.3°C 57.8°F14.3°C 100% 0.7 mph N1.1 kmh N 3.1 mph5.0 kmh 30.35 in1027.8 mb 0.17 in4.3 mm 0.00 in/hr0.0 mm/hr 0.17 in4.3 mm
04:18 AM 58.1°F14.5°C 58.1°F14.5°C 100% 1.6 mph N2.6 kmh N 3.1 mph5.0 kmh 30.35 in1027.8 mb 0.17 in4.3 mm 0.00 in/hr0.0 mm/hr 0.17 in4.3 mm
04:17 AM 58.3°F14.6°C 58.3°F14.6°C 100% 1.6 mph WSW2.6 kmh WSW 3.1 mph5.0 kmh 30.34 in1027.4 mb 0.17 in4.3 mm 0.00 in/hr0.0 mm/hr 0.17 in4.3 mm
04:16 AM 58.5°F14.7°C 58.5°F14.7°C 100% Calm Calm 3.1 mph5.0 kmh 30.35 in1027.8 mb 0.17 in4.3 mm 0.00 in/hr0.0 mm/hr 0.17 in4.3 mm
04:15 AM 58.5°F14.7°C 58.5°F14.7°C 100% Calm Calm 3.1 mph5.0 kmh 30.35 in1027.8 mb 0.17 in4.3 mm 0.00 in/hr0.0 mm/hr 0.17 in4.3 mm
04:14 AM 58.6°F14.8°C 58.7°F14.8°C 100% Calm Calm 3.1 mph5.0 kmh 30.34 in1027.4 mb 0.17 in4.3 mm 0.00 in/hr0.0 mm/hr 0.17 in4.3 mm
04:13 AM 58.8°F14.9°C 58.8°F14.9°C 100% 0.7 mph SSW1.1 kmh SSW 3.1 mph5.0 kmh 30.34 in1027.4 mb 0.17 in4.3 mm 0.00 in/hr0.0 mm/hr 0.17 in4.3 mm
04:12 AM 58.8°F14.9°C 58.8°F14.9°C 100% Calm Calm 3.1 mph5.0 kmh 30.34 in1027.4 mb 0.17 in4.3 mm 0.00 in/hr0.0 mm/hr 0.17 in4.3 mm
04:11 AM 58.8°F14.9°C 58.8°F14.9°C 100% Calm Calm 3.1 mph5.0 kmh 30.34 in1027.4 mb 0.17 in4.3 mm 0.00 in/hr0.0 mm/hr 0.17 in4.3 mm
04:10 AM 59.0°F15.0°C 59.0°F15.0°C 100% 1.6 mph S2.6 kmh S 3.1 mph5.0 kmh 30.34 in1027.4 mb 0.17 in4.3 mm 0.00 in/hr0.0 mm/hr 0.17 in4.3 mm
04:09 AM 59.2°F15.1°C 59.2°F15.1°C 100% Calm Calm 2.2 mph3.5 kmh 30.34 in1027.4 mb 0.17 in4.3 mm 1.80 in/hr45.7 mm/hr 0.17 in4.3 mm
04:08 AM 59.2°F15.1°C 59.2°F15.1°C 100% Calm Calm 2.2 mph3.5 kmh 30.34 in1027.4 mb 0.14 in3.6 mm 0.00 in/hr0.0 mm/hr 0.14 in3.6 mm
04:07 AM 59.4°F15.2°C 59.4°F15.2°C 100% 1.6 mph SSW2.6 kmh SSW 2.2 mph3.5 kmh 30.34 in1027.4 mb 0.14 in3.6 mm 8.40 in/hr213.4 mm/hr 0.14 in3.6 mm
04:06 AM 59.0°F15.0°C 58.4°F14.7°C 98% Calm Calm -- 30.34 in1027.4 mb 0.00 in0.0 mm 0.00 in/hr0.0 mm/hr 0.00 in0.0 mm
04:05 AM 59.0°F15.0°C 58.4°F14.7°C 98% Calm Calm -- 30.34 in1027.4 mb 0.00 in0.0 mm 0.00 in/hr0.0 mm/hr 0.00 in0.0 mm
04:04 AM 59.0°F15.0°C 58.4°F14.7°C 98% Calm Calm -- 30.34 in1027.4 mb 0.00 in0.0 mm 0.00 in/hr0.0 mm/hr 0.00 in0.0 mm
04:03 AM 59.0°F15.0°C 58.4°F14.7°C 98% Calm Calm -- 30.34 in1027.4 mb 0.00 in0.0 mm 0.00 in/hr0.0 mm/hr 0.00 in0.0 mm
04:02 AM 59.0°F15.0°C 58.4°F14.7°C 98% Calm Calm -- 30.35 in1027.8 mb 0.00 in0.0 mm 0.00 in/hr0.0 mm/hr 0.00 in0.0 mm
04:01 AM 59.0°F15.0°C 58.4°F14.7°C 98% Calm Calm -- 30.35 in1027.8 mb 0.00 in0.0 mm 0.00 in/hr0.0 mm/hr 0.00 in0.0 mm
04:00 AM 59.0°F15.0°C 58.4°F14.7°C 98% Calm Calm -- 30.35 in1027.8 mb 0.00 in0.0 mm 0.00 in/hr0.0 mm/hr 0.00 in0.0 mm
03:59 AM 59.0°F15.0°C 58.4°F14.7°C 98% Calm Calm -- 30.35 in1027.8 mb 0.00 in0.0 mm 0.00 in/hr0.0 mm/hr 0.00 in0.0 mm
03:58 AM 59.0°F15.0°C 58.4°F14.7°C 98% Calm Calm -- 30.35 in1027.8 mb 0.00 in0.0 mm 0.00 in/hr0.0 mm/hr 0.00 in0.0 mm
03:57 AM 59.0°F15.0°C 58.4°F14.7°C 98% Calm Calm -- 30.35 in1027.8 mb 0.00 in0.0 mm 0.00 in/hr0.0 mm/hr 0.00 in0.0 mm
03:56 AM 59.0°F15.0°C 58.4°F14.7°C 98% Calm Calm -- 30.35 in1027.8 mb 0.00 in0.0 mm 0.00 in/hr0.0 mm/hr 0.00 in0.0 mm
03:55 AM 59.0°F15.0°C 58.4°F14.7°C 98% Calm Calm -- 30.35 in1027.8 mb 0.00 in0.0 mm 0.00 in/hr0.0 mm/hr 0.00 in0.0 mm
03:54 AM 59.0°F15.0°C 58.4°F14.7°C 98% Calm Calm -- 30.35 in1027.8 mb 0.00 in0.0 mm 0.00 in/hr0.0 mm/hr 0.00 in0.0 mm
03:53 AM 58.8°F14.9°C 58.8°F14.9°C 100% Calm Calm -- 30.35 in1027.8 mb 0.00 in0.0 mm 0.00 in/hr0.0 mm/hr 0.00 in0.0 mm
03:52 AM 58.8°F14.9°C 58.8°F14.9°C 100% Calm Calm -- 30.35 in1027.8 mb 0.00 in0.0 mm 0.00 in/hr0.0 mm/hr 0.00 in0.0 mm
03:51 AM 58.8°F14.9°C 58.8°F14.9°C 100% Calm Calm -- 30.35 in1027.8 mb 0.00 in0.0 mm 0.00 in/hr0.0 mm/hr 0.00 in0.0 mm
03:50 AM 58.8°F14.9°C 58.8°F14.9°C 100% Calm Calm -- 30.35 in1027.8 mb 0.00 in0.0 mm 0.00 in/hr0.0 mm/hr 0.00 in0.0 mm
03:49 AM 58.8°F14.9°C 58.8°F14.9°C 100% Calm Calm -- 30.35 in1027.8 mb 0.00 in0.0 mm 0.00 in/hr0.0 mm/hr 0.00 in0.0 mm
03:48 AM 58.8°F14.9°C 58.3°F14.6°C 98% Calm Calm -- 30.35 in1027.8 mb 0.00 in0.0 mm 0.00 in/hr0.0 mm/hr 0.00 in0.0 mm
03:47 AM 58.8°F14.9°C 58.3°F14.6°C 98% Calm Calm -- 30.35 in1027.8 mb 0.00 in0.0 mm 0.00 in/hr0.0 mm/hr 0.00 in0.0 mm
03:46 AM 59.0°F15.0°C 58.2°F14.6°C 97% Calm Calm -- 30.35 in1027.8 mb 0.00 in0.0 mm 0.00 in/hr0.0 mm/hr 0.00 in0.0 mm
03:45 AM 59.0°F15.0°C 58.2°F14.6°C 97% Calm Calm -- 30.35 in1027.8 mb 0.00 in0.0 mm 0.00 in/hr0.0 mm/hr 0.00 in0.0 mm
03:44 AM 59.2°F15.1°C 58.3°F14.6°C 97% Calm Calm -- 30.35 in1027.8 mb 0.00 in0.0 mm 0.00 in/hr0.0 mm/hr 0.00 in0.0 mm
03:43 AM 59.4°F15.2°C 58.5°F14.7°C 97% Calm Calm -- 30.35 in1027.8 mb 0.00 in0.0 mm 0.00 in/hr0.0 mm/hr 0.00 in0.0 mm
03:42 AM 59.4°F15.2°C 58.5°F14.7°C 97% Calm Calm -- 30.35 in1027.8 mb 0.00 in0.0 mm 0.00 in/hr0.0 mm/hr 0.00 in0.0 mm
03:41 AM 59.4°F15.2°C 58.5°F14.7°C 97% Calm Calm -- 30.36 in1028.1 mb 0.00 in0.0 mm 0.00 in/hr0.0 mm/hr 0.00 in0.0 mm
03:40 AM 59.4°F15.2°C 58.2°F14.6°C 96% Calm Calm -- 30.36 in1028.1 mb 0.00 in0.0 mm 0.00 in/hr0.0 mm/hr 0.00 in0.0 mm
03:39 AM 59.4°F15.2°C 58.2°F14.6°C 96% Calm Calm -- 30.36 in1028.1 mb 0.00 in0.0 mm 0.00 in/hr0.0 mm/hr 0.00 in0.0 mm
03:38 AM 59.4°F15.2°C 58.2°F14.6°C 96% Calm Calm -- 30.36 in1028.1 mb 0.00 in0.0 mm 0.00 in/hr0.0 mm/hr 0.00 in0.0 mm
03:37 AM 59.4°F15.2°C 58.2°F14.6°C 96% Calm Calm -- 30.36 in1028.1 mb 0.00 in0.0 mm 0.00 in/hr0.0 mm/hr 0.00 in0.0 mm
03:36 AM 59.4°F15.2°C 58.2°F14.6°C 96% Calm Calm -- 30.36 in1028.1 mb 0.00 in0.0 mm 0.00 in/hr0.0 mm/hr 0.00 in0.0 mm
03:35 AM 59.5°F15.3°C 58.4°F14.7°C 96% Calm Calm 0.7 mph1.1 kmh 30.36 in1028.1 mb 0.00 in0.0 mm 0.00 in/hr0.0 mm/hr 0.00 in0.0 mm
03:34 AM 59.5°F15.3°C 58.4°F14.7°C 96% Calm Calm 0.7 mph1.1 kmh 30.36 in1028.1 mb 0.00 in0.0 mm 0.00 in/hr0.0 mm/hr 0.00 in0.0 mm
03:33 AM 59.5°F15.3°C 58.4°F14.7°C 96% Calm Calm 0.7 mph1.1 kmh 30.36 in1028.1 mb 0.00 in0.0 mm 0.00 in/hr0.0 mm/hr 0.00 in0.0 mm
03:32 AM 59.7°F15.4°C 58.6°F14.8°C 96% Calm Calm 0.7 mph1.1 kmh 30.36 in1028.1 mb 0.00 in0.0 mm 0.00 in/hr0.0 mm/hr 0.00 in0.0 mm
03:31 AM 59.7°F15.4°C 58.6°F14.8°C 96% Calm Calm 0.7 mph1.1 kmh 30.36 in1028.1 mb 0.00 in0.0 mm 0.00 in/hr0.0 mm/hr 0.00 in0.0 mm
03:30 AM 59.7°F15.4°C 58.6°F14.8°C 96% Calm Calm 0.7 mph1.1 kmh 30.36 in1028.1 mb 0.00 in0.0 mm 0.00 in/hr0.0 mm/hr 0.00 in0.0 mm
03:29 AM 59.7°F15.4°C 58.6°F14.8°C 96% Calm Calm 0.7 mph1.1 kmh 30.36 in1028.1 mb 0.00 in0.0 mm 0.00 in/hr0.0 mm/hr 0.00 in0.0 mm
03:28 AM 59.7°F15.4°C 58.6°F14.8°C 96% Calm Calm 0.7 mph1.1 kmh 30.36 in1028.1 mb 0.00 in0.0 mm 0.00 in/hr0.0 mm/hr 0.00 in0.0 mm
03:27 AM 59.7°F15.4°C 58.3°F14.6°C 95% Calm Calm 0.7 mph1.1 kmh 30.36 in1028.1 mb 0.00 in0.0 mm 0.00 in/hr0.0 mm/hr 0.00 in0.0 mm
03:26 AM 59.5°F15.3°C 58.1°F14.5°C 95% Calm Calm 2.2 mph3.5 kmh 30.36 in1028.1 mb 0.00 in0.0 mm 0.00 in/hr0.0 mm/hr 0.00 in0.0 mm
03:25 AM 59.5°F15.3°C 58.1°F14.5°C 95% Calm Calm 2.2 mph3.5 kmh 30.36 in1028.1 mb 0.00 in0.0 mm 0.00 in/hr0.0 mm/hr 0.00 in0.0 mm
03:24 AM 59.5°F15.3°C 58.1°F14.5°C 95% Calm Calm 3.1 mph5.0 kmh 30.36 in1028.1 mb 0.00 in0.0 mm 0.00 in/hr0.0 mm/hr 0.00 in0.0 mm
03:23 AM 59.7°F15.4°C 58.3°F14.6°C 95% Calm Calm 3.1 mph5.0 kmh 30.36 in1028.1 mb 0.00 in0.0 mm 0.00 in/hr0.0 mm/hr 0.00 in0.0 mm
03:22 AM 59.9°F15.5°C 58.5°F14.7°C 95% Calm Calm 3.1 mph5.0 kmh 30.36 in1028.1 mb 0.00 in0.0 mm 0.00 in/hr0.0 mm/hr 0.00 in0.0 mm
03:21 AM 60.1°F15.6°C 58.7°F14.8°C 95% Calm Calm 3.1 mph5.0 kmh 30.36 in1028.1 mb 0.00 in0.0 mm 0.00 in/hr0.0 mm/hr 0.00 in0.0 mm
03:20 AM 60.1°F15.6°C 58.7°F14.8°C 95% Calm Calm 3.1 mph5.0 kmh 30.36 in1028.1 mb 0.00 in0.0 mm 0.00 in/hr0.0 mm/hr 0.00 in0.0 mm
03:19 AM 60.1°F15.6°C 58.7°F14.8°C 95% Calm Calm 3.8 mph6.1 kmh 30.36 in1028.1 mb 0.00 in0.0 mm 0.00 in/hr0.0 mm/hr 0.00 in0.0 mm
03:18 AM 60.1°F15.6°C 58.1°F14.5°C 93% Calm Calm 3.8 mph6.1 kmh 30.36 in1028.1 mb 0.00 in0.0 mm 0.00 in/hr0.0 mm/hr 0.00 in0.0 mm
03:17 AM 60.1°F15.6°C 58.1°F14.5°C 93% Calm Calm 3.8 mph6.1 kmh 30.36 in1028.1 mb 0.00 in0.0 mm 0.00 in/hr0.0 mm/hr 0.00 in0.0 mm
03:16 AM 60.1°F15.6°C 58.1°F14.5°C 93% 0.7 mph SSW1.1 kmh SSW 3.8 mph6.1 kmh 30.36 in1028.1 mb 0.00 in0.0 mm 0.00 in/hr0.0 mm/hr 0.00 in0.0 mm
03:15 AM 59.9°F15.5°C 57.9°F14.4°C 93% 1.6 mph S2.6 kmh S 3.8 mph6.1 kmh 30.36 in1028.1 mb 0.00 in0.0 mm 0.00 in/hr0.0 mm/hr 0.00 in0.0 mm
03:14 AM 59.9°F15.5°C 57.9°F14.4°C 93% Calm Calm 3.8 mph6.1 kmh 30.36 in1028.1 mb 0.00 in0.0 mm 0.00 in/hr0.0 mm/hr 0.00 in0.0 mm
03:13 AM 59.9°F15.5°C 57.9°F14.4°C 93% Calm Calm 5.4 mph8.7 kmh 30.36 in1028.1 mb 0.00 in0.0 mm 0.00 in/hr0.0 mm/hr 0.00 in0.0 mm
03:12 AM 59.9°F15.5°C 57.9°F14.4°C 93% 0.7 mph S1.1 kmh S 5.4 mph8.7 kmh 30.36 in1028.1 mb 0.00 in0.0 mm 0.00 in/hr0.0 mm/hr 0.00 in0.0 mm
03:11 AM 60.1°F15.6°C 58.1°F14.5°C 93% Calm Calm 5.4 mph8.7 kmh 30.36 in1028.1 mb 0.00 in0.0 mm 0.00 in/hr0.0 mm/hr 0.00 in0.0 mm
03:10 AM 60.1°F15.6°C 58.1°F14.5°C 93% 1.6 mph S2.6 kmh S 5.4 mph8.7 kmh 30.36 in1028.1 mb 0.00 in0.0 mm 0.00 in/hr0.0 mm/hr 0.00 in0.0 mm
03:09 AM 59.9°F15.5°C 57.9°F14.4°C 93% 2.2 mph SSE3.5 kmh SSE 5.4 mph8.7 kmh 30.36 in1028.1 mb 0.00 in0.0 mm 0.00 in/hr0.0 mm/hr 0.00 in0.0 mm
03:08 AM 59.9°F15.5°C 57.9°F14.4°C 93% 1.6 mph SSE2.6 kmh SSE 5.4 mph8.7 kmh 30.36 in1028.1 mb 0.00 in0.0 mm 0.00 in/hr0.0 mm/hr 0.00 in0.0 mm
03:07 AM 59.9°F15.5°C 57.9°F14.4°C 93% Calm Calm 5.4 mph8.7 kmh 30.36 in1028.1 mb 0.00 in0.0 mm 0.00 in/hr0.0 mm/hr 0.00 in0.0 mm
03:06 AM 59.9°F15.5°C 58.5°F14.7°C 95% 0.7 mph SE1.1 kmh SE 5.4 mph8.7 kmh 30.36 in1028.1 mb 0.00 in0.0 mm 0.00 in/hr0.0 mm/hr 0.00 in0.0 mm
03:05 AM 59.9°F15.5°C 58.5°F14.7°C 95% 0.7 mph SE1.1 kmh SE 5.4 mph8.7 kmh 30.36 in1028.1 mb 0.00 in0.0 mm 0.00 in/hr0.0 mm/hr 0.00 in0.0 mm
03:04 AM 59.9°F15.5°C 58.5°F14.7°C 95% Calm Calm 5.4 mph8.7 kmh 30.37 in1028.4 mb 0.00 in0.0 mm 0.00 in/hr0.0 mm/hr 0.00 in0.0 mm
03:03 AM 59.9°F15.5°C 58.5°F14.7°C 95% 2.2 mph SSE3.5 kmh SSE 5.4 mph8.7 kmh 30.36 in1028.1 mb 0.00 in0.0 mm 0.00 in/hr0.0 mm/hr 0.00 in0.0 mm
03:02 AM 59.7°F15.4°C 58.3°F14.6°C 95% 1.6 mph SE2.6 kmh SE 3.8 mph6.1 kmh 30.37 in1028.4 mb 0.00 in0.0 mm 0.00 in/hr0.0 mm/hr 0.00 in0.0 mm
03:01 AM 59.7°F15.4°C 58.3°F14.6°C 95% Calm Calm 3.1 mph5.0 kmh 30.37 in1028.4 mb 0.00 in0.0 mm 0.00 in/hr0.0 mm/hr 0.00 in0.0 mm
03:00 AM 59.7°F15.4°C 58.3°F14.6°C 95% Calm Calm 3.1 mph5.0 kmh 30.37 in1028.4 mb 0.00 in0.0 mm 0.00 in/hr0.0 mm/hr 0.00 in0.0 mm
02:59 AM 59.7°F15.4°C 58.3°F14.6°C 95% 0.7 mph SSE1.1 kmh SSE 3.1 mph5.0 kmh 30.37 in1028.4 mb 0.00 in0.0 mm 0.00 in/hr0.0 mm/hr 0.00 in0.0 mm
02:58 AM 59.5°F15.3°C 58.1°F14.5°C 95% Calm Calm 3.1 mph5.0 kmh 30.37 in1028.4 mb 0.00 in0.0 mm 0.00 in/hr0.0 mm/hr 0.00 in0.0 mm
02:57 AM 59.5°F15.3°C 57.5°F14.2°C 93% Calm Calm 3.1 mph5.0 kmh 30.37 in1028.4 mb 0.00 in0.0 mm 0.00 in/hr0.0 mm/hr 0.00 in0.0 mm
02:56 AM 59.5°F15.3°C 57.5°F14.2°C 93% 0.7 mph S1.1 kmh S 3.1 mph5.0 kmh 30.37 in1028.4 mb 0.00 in0.0 mm 0.00 in/hr0.0 mm/hr 0.00 in0.0 mm
02:55 AM 59.5°F15.3°C 57.5°F14.2°C 93% 0.7 mph S1.1 kmh S 3.1 mph5.0 kmh 30.37 in1028.4 mb 0.00 in0.0 mm 0.00 in/hr0.0 mm/hr 0.00 in0.0 mm
02:54 AM 59.4°F15.2°C 57.3°F14.1°C 93% 1.6 mph S2.6 kmh S 3.1 mph5.0 kmh 30.37 in1028.4 mb 0.00 in0.0 mm 0.00 in/hr0.0 mm/hr 0.00 in0.0 mm
02:53 AM 59.5°F15.3°C 57.5°F14.2°C 93% Calm Calm 3.1 mph5.0 kmh 30.37 in1028.4 mb 0.00 in0.0 mm 0.00 in/hr0.0 mm/hr 0.00 in0.0 mm
02:52 AM 59.5°F15.3°C 57.5°F14.2°C 93% Calm Calm 3.1 mph5.0 kmh 30.37 in1028.4 mb 0.00 in0.0 mm 0.00 in/hr0.0 mm/hr 0.00 in0.0 mm
02:51 AM 59.5°F15.3°C 57.5°F14.2°C 93% Calm Calm 3.1 mph5.0 kmh 30.37 in1028.4 mb 0.00 in0.0 mm 0.00 in/hr0.0 mm/hr 0.00 in0.0 mm
02:50 AM 59.7°F15.4°C 57.7°F14.3°C 93% 0.7 mph S1.1 kmh S 3.1 mph5.0 kmh 30.38 in1028.8 mb 0.00 in0.0 mm 0.00 in/hr0.0 mm/hr 0.00 in0.0 mm
02:49 AM 59.7°F15.4°C 57.7°F14.3°C 93% 1.6 mph SSW2.6 kmh SSW 3.1 mph5.0 kmh 30.37 in1028.4 mb 0.00 in0.0 mm 0.00 in/hr0.0 mm/hr 0.00 in0.0 mm
02:48 AM 59.7°F15.4°C 57.7°F14.3°C 93% 2.2 mph SSW3.5 kmh SSW 3.1 mph5.0 kmh 30.38 in1028.8 mb 0.00 in0.0 mm 0.00 in/hr0.0 mm/hr 0.00 in0.0 mm
02:47 AM 59.7°F15.4°C 57.7°F14.3°C 93% 1.6 mph SSW2.6 kmh SSW 3.1 mph5.0 kmh 30.38 in1028.8 mb 0.00 in0.0 mm 0.00 in/hr0.0 mm/hr 0.00 in0.0 mm
02:46 AM 59.7°F15.4°C 57.7°F14.3°C 93% 2.2 mph S3.5 kmh S 3.8 mph6.1 kmh 30.38 in1028.8 mb 0.00 in0.0 mm 0.00 in/hr0.0 mm/hr 0.00 in0.0 mm
02:45 AM 59.7°F15.4°C 57.7°F14.3°C 93% 1.6 mph S2.6 kmh S 3.8 mph6.1 kmh 30.38 in1028.8 mb 0.00 in0.0 mm 0.00 in/hr0.0 mm/hr 0.00 in0.0 mm
02:44 AM 59.7°F15.4°C 57.7°F14.3°C 93% Calm Calm 3.8 mph6.1 kmh 30.38 in1028.8 mb 0.00 in0.0 mm 0.00 in/hr0.0 mm/hr 0.00 in0.0 mm
02:43 AM 59.7°F15.4°C 57.7°F14.3°C 93% Calm Calm 4.5 mph7.2 kmh 30.38 in1028.8 mb 0.00 in0.0 mm 0.00 in/hr0.0 mm/hr 0.00 in0.0 mm
02:42 AM 59.7°F15.4°C 57.7°F14.3°C 93% Calm Calm 4.5 mph7.2 kmh 30.38 in1028.8 mb 0.00 in0.0 mm 0.00 in/hr0.0 mm/hr 0.00 in0.0 mm
02:41 AM 59.7°F15.4°C 57.7°F14.3°C 93% Calm Calm 5.4 mph8.7 kmh 30.38 in1028.8 mb 0.00 in0.0 mm 0.00 in/hr0.0 mm/hr 0.00 in0.0 mm
02:40 AM 59.9°F15.5°C 57.9°F14.4°C 93% Calm Calm 5.4 mph8.7 kmh 30.38 in1028.8 mb 0.00 in0.0 mm 0.00 in/hr0.0 mm/hr 0.00 in0.0 mm
02:39 AM 59.9°F15.5°C 57.9°F14.4°C 93% 0.7 mph S1.1 kmh S 5.4 mph8.7 kmh 30.38 in1028.8 mb 0.00 in0.0 mm 0.00 in/hr0.0 mm/hr 0.00 in0.0 mm
02:38 AM 59.9°F15.5°C 57.9°F14.4°C 93% Calm Calm 5.4 mph8.7 kmh 30.38 in1028.8 mb 0.00 in0.0 mm 0.00 in/hr0.0 mm/hr 0.00 in0.0 mm
02:37 AM 59.9°F15.5°C 58.5°F14.7°C 95% Calm Calm 5.4 mph8.7 kmh 30.38 in1028.8 mb 0.00 in0.0 mm 0.00 in/hr0.0 mm/hr 0.00 in0.0 mm
02:36 AM 59.9°F15.5°C 58.5°F14.7°C 95% 1.6 mph SSW2.6 kmh SSW 5.4 mph8.7 kmh 30.38 in1028.8 mb 0.00 in0.0 mm 0.00 in/hr0.0 mm/hr 0.00 in0.0 mm
02:35 AM 59.9°F15.5°C 58.5°F14.7°C 95% 2.2 mph S3.5 kmh S 5.4 mph8.7 kmh 30.38 in1028.8 mb 0.00 in0.0 mm 0.00 in/hr0.0 mm/hr 0.00 in0.0 mm
02:34 AM 59.7°F15.4°C 58.3°F14.6°C 95% 1.6 mph S2.6 kmh S 5.4 mph8.7 kmh 30.38 in1028.8 mb 0.00 in0.0 mm 0.00 in/hr0.0 mm/hr 0.00 in0.0 mm
02:33 AM 59.7°F15.4°C 58.3°F14.6°C 95% 3.1 mph S5.0 kmh S 5.4 mph8.7 kmh 30.38 in1028.8 mb 0.00 in0.0 mm 0.00 in/hr0.0 mm/hr 0.00 in0.0 mm
02:32 AM 59.7°F15.4°C 58.3°F14.6°C 95% 1.6 mph SSW2.6 kmh SSW 5.4 mph8.7 kmh 30.38 in1028.8 mb 0.00 in0.0 mm 0.00 in/hr0.0 mm/hr 0.00 in0.0 mm
02:31 AM 59.5°F15.3°C 58.1°F14.5°C 95% 2.2 mph SSW3.5 kmh SSW 5.4 mph8.7 kmh 30.38 in1028.8 mb 0.00 in0.0 mm 0.00 in/hr0.0 mm/hr 0.00 in0.0 mm
02:30 AM 59.5°F15.3°C 58.4°F14.7°C 96% 2.2 mph SSW3.5 kmh SSW 4.5 mph7.2 kmh 30.38 in1028.8 mb 0.00 in0.0 mm 0.00 in/hr0.0 mm/hr 0.00 in0.0 mm
02:29 AM 59.5°F15.3°C 58.4°F14.7°C 96% 1.6 mph SW2.6 kmh SW 4.5 mph7.2 kmh 30.39 in1029.1 mb 0.00 in0.0 mm 0.00 in/hr0.0 mm/hr 0.00 in0.0 mm
02:28 AM 59.4°F15.2°C 58.2°F14.6°C 96% 2.2 mph SW3.5 kmh SW 4.5 mph7.2 kmh 30.39 in1029.1 mb 0.00 in0.0 mm 0.00 in/hr0.0 mm/hr 0.00 in0.0 mm
02:27 AM 59.4°F15.2°C 58.2°F14.6°C 96% 1.6 mph SW2.6 kmh SW 4.5 mph7.2 kmh 30.39 in1029.1 mb 0.00 in0.0 mm 0.00 in/hr0.0 mm/hr 0.00 in0.0 mm
02:26 AM 59.2°F15.1°C 58.1°F14.5°C 96% 3.1 mph SW5.0 kmh SW 4.5 mph7.2 kmh 30.39 in1029.1 mb 0.00 in0.0 mm 0.00 in/hr0.0 mm/hr 0.00 in0.0 mm
02:25 AM 59.2°F15.1°C 58.1°F14.5°C 96% Calm Calm 3.8 mph6.1 kmh 30.39 in1029.1 mb 0.00 in0.0 mm 0.00 in/hr0.0 mm/hr 0.00 in0.0 mm
02:24 AM 59.2°F15.1°C 58.1°F14.5°C 96% Calm Calm 3.8 mph6.1 kmh 30.39 in1029.1 mb 0.00 in0.0 mm 0.00 in/hr0.0 mm/hr 0.00 in0.0 mm
02:23 AM 59.2°F15.1°C 58.1°F14.5°C 96% Calm Calm 3.8 mph6.1 kmh 30.39 in1029.1 mb 0.00 in0.0 mm 0.00 in/hr0.0 mm/hr 0.00 in0.0 mm
02:22 AM 59.2°F15.1°C 58.1°F14.5°C 96% 0.7 mph W1.1 kmh W 3.1 mph5.0 kmh 30.39 in1029.1 mb 0.00 in0.0 mm 0.00 in/hr0.0 mm/hr 0.00 in0.0 mm
02:21 AM 59.0°F15.0°C 58.2°F14.6°C 97% 0.7 mph W1.1 kmh W 4.5 mph7.2 kmh 30.39 in1029.1 mb 0.00 in0.0 mm 0.00 in/hr0.0 mm/hr 0.00 in0.0 mm
02:20 AM 59.0°F15.0°C 58.2°F14.6°C 97% Calm Calm 4.5 mph7.2 kmh 30.39 in1029.1 mb 0.00 in0.0 mm 0.00 in/hr0.0 mm/hr 0.00 in0.0 mm
02:19 AM 59.0°F15.0°C 58.2°F14.6°C 97% 0.7 mph W1.1 kmh W 4.5 mph7.2 kmh 30.39 in1029.1 mb 0.00 in0.0 mm 0.00 in/hr0.0 mm/hr 0.00 in0.0 mm
02:18 AM 59.0°F15.0°C 58.2°F14.6°C 97% Calm Calm 4.5 mph7.2 kmh 30.39 in1029.1 mb 0.00 in0.0 mm 0.00 in/hr0.0 mm/hr 0.00 in0.0 mm
02:17 AM 59.0°F15.0°C 58.2°F14.6°C 97% Calm Calm 4.5 mph7.2 kmh 30.39 in1029.1 mb 0.00 in0.0 mm 0.00 in/hr0.0 mm/hr 0.00 in0.0 mm
02:16 AM 59.0°F15.0°C 58.2°F14.6°C 97% Calm Calm 4.5 mph7.2 kmh 30.39 in1029.1 mb 0.00 in0.0 mm 0.00 in/hr0.0 mm/hr 0.00 in0.0 mm
02:15 AM 59.0°F15.0°C 58.2°F14.6°C 97% Calm Calm 4.5 mph7.2 kmh 30.39 in1029.1 mb 0.00 in0.0 mm 0.00 in/hr0.0 mm/hr 0.00 in0.0 mm
02:14 AM 59.0°F15.0°C 58.2°F14.6°C 97% Calm Calm 4.5 mph7.2 kmh 30.39 in1029.1 mb 0.00 in0.0 mm 0.00 in/hr0.0 mm/hr 0.00 in0.0 mm
02:13 AM 59.0°F15.0°C 58.2°F14.6°C 97% Calm Calm 4.5 mph7.2 kmh 30.39 in1029.1 mb 0.00 in0.0 mm 0.00 in/hr0.0 mm/hr 0.00 in0.0 mm
02:12 AM 59.0°F15.0°C 58.2°F14.6°C 97% 0.7 mph WSW1.1 kmh WSW 4.5 mph7.2 kmh 30.39 in1029.1 mb 0.00 in0.0 mm 0.00 in/hr0.0 mm/hr 0.00 in0.0 mm
02:11 AM 58.8°F14.9°C 58.3°F14.6°C 98% 2.2 mph WSW3.5 kmh WSW 4.5 mph7.2 kmh 30.39 in1029.1 mb 0.00 in0.0 mm 0.00 in/hr0.0 mm/hr 0.00 in0.0 mm
02:10 AM 58.8°F14.9°C 58.3°F14.6°C 98% Calm Calm -- 30.39 in1029.1 mb 0.00 in0.0 mm 0.00 in/hr0.0 mm/hr 0.00 in0.0 mm
02:09 AM 58.8°F14.9°C 58.3°F14.6°C 98% Calm Calm 0.7 mph1.1 kmh 30.39 in1029.1 mb 0.00 in0.0 mm 0.00 in/hr0.0 mm/hr 0.00 in0.0 mm
02:08 AM 58.8°F14.9°C 58.3°F14.6°C 98% Calm Calm 1.6 mph2.6 kmh 30.39 in1029.1 mb 0.00 in0.0 mm 0.00 in/hr0.0 mm/hr 0.00 in0.0 mm
02:07 AM 58.8°F14.9°C 58.3°F14.6°C 98% Calm Calm 1.6 mph2.6 kmh 30.39 in1029.1 mb 0.00 in0.0 mm 0.00 in/hr0.0 mm/hr 0.00 in0.0 mm
02:06 AM 58.5°F14.7°C 58.5°F14.7°C 100% Calm Calm 1.6 mph2.6 kmh 30.39 in1029.1 mb 0.00 in0.0 mm 0.00 in/hr0.0 mm/hr 0.00 in0.0 mm
02:05 AM 58.5°F14.7°C 58.5°F14.7°C 100% Calm Calm 1.6 mph2.6 kmh 30.39 in1029.1 mb 0.00 in0.0 mm 0.00 in/hr0.0 mm/hr 0.00 in0.0 mm
02:04 AM 58.5°F14.7°C 58.5°F14.7°C 100% Calm Calm 1.6 mph2.6 kmh 30.39 in1029.1 mb 0.00 in0.0 mm 0.00 in/hr0.0 mm/hr 0.00 in0.0 mm
02:03 AM 58.5°F14.7°C 58.5°F14.7°C 100% Calm Calm 1.6 mph2.6 kmh 30.39 in1029.1 mb 0.00 in0.0 mm 0.00 in/hr0.0 mm/hr 0.00 in0.0 mm
02:02 AM 58.5°F14.7°C 58.5°F14.7°C 100% Calm Calm 1.6 mph2.6 kmh 30.39 in1029.1 mb 0.00 in0.0 mm 0.00 in/hr0.0 mm/hr 0.00 in0.0 mm
02:01 AM 58.5°F14.7°C 58.5°F14.7°C 100% Calm Calm 3.8 mph6.1 kmh 30.39 in1029.1 mb 0.00 in0.0 mm 0.00 in/hr0.0 mm/hr 0.00 in0.0 mm
02:00 AM 58.5°F14.7°C 58.5°F14.7°C 100% Calm Calm 3.8 mph6.1 kmh 30.39 in1029.1 mb 0.00 in0.0 mm 0.00 in/hr0.0 mm/hr 0.00 in0.0 mm
01:59 AM 58.5°F14.7°C 58.5°F14.7°C 100% Calm Calm 5.4 mph8.7 kmh 30.40 in1029.5 mb 0.00 in0.0 mm 0.00 in/hr0.0 mm/hr 0.00 in0.0 mm
01:58 AM 58.5°F14.7°C 58.5°F14.7°C 100% Calm Calm 5.4 mph8.7 kmh 30.39 in1029.1 mb 0.00 in0.0 mm 0.00 in/hr0.0 mm/hr 0.00 in0.0 mm
01:57 AM 58.5°F14.7°C 58.5°F14.7°C 100% Calm Calm 5.4 mph8.7 kmh 30.39 in1029.1 mb 0.00 in0.0 mm 0.00 in/hr0.0 mm/hr 0.00 in0.0 mm
01:56 AM 58.6°F14.8°C 58.7°F14.8°C 100% Calm Calm 5.4 mph8.7 kmh 30.40 in1029.5 mb 0.00 in0.0 mm 0.00 in/hr0.0 mm/hr 0.00 in0.0 mm
01:55 AM 58.6°F14.8°C 58.7°F14.8°C 100% Calm Calm 5.4 mph8.7 kmh 30.39 in1029.1 mb 0.00 in0.0 mm 0.00 in/hr0.0 mm/hr 0.00 in0.0 mm
01:54 AM 58.6°F14.8°C 58.7°F14.8°C 100% Calm Calm 5.4 mph8.7 kmh 30.40 in1029.5 mb 0.00 in0.0 mm 0.00 in/hr0.0 mm/hr 0.00 in0.0 mm
01:53 AM 58.8°F14.9°C 58.8°F14.9°C 100% Calm Calm 5.4 mph8.7 kmh 30.40 in1029.5 mb 0.00 in0.0 mm 0.00 in/hr0.0 mm/hr 0.00 in0.0 mm
01:52 AM 58.8°F14.9°C 58.8°F14.9°C 100% Calm Calm 5.4 mph8.7 kmh 30.40 in1029.5 mb 0.00 in0.0 mm 0.00 in/hr0.0 mm/hr 0.00 in0.0 mm
01:51 AM 58.6°F14.8°C 58.7°F14.8°C 100% 1.6 mph SW2.6 kmh SW 5.4 mph8.7 kmh 30.39 in1029.1 mb 0.00 in0.0 mm 0.00 in/hr0.0 mm/hr 0.00 in0.0 mm
01:50 AM 58.5°F14.7°C 58.5°F14.7°C 100% 2.2 mph SW3.5 kmh SW 5.4 mph8.7 kmh 30.40 in1029.5 mb 0.00 in0.0 mm 0.00 in/hr0.0 mm/hr 0.00 in0.0 mm
01:49 AM 58.5°F14.7°C 58.5°F14.7°C 100% Calm Calm 3.8 mph6.1 kmh 30.40 in1029.5 mb 0.00 in0.0 mm 0.00 in/hr0.0 mm/hr 0.00 in0.0 mm
01:48 AM 58.3°F14.6°C 58.3°F14.6°C 100% Calm Calm 3.8 mph6.1 kmh 30.39 in1029.1 mb 0.00 in0.0 mm 0.00 in/hr0.0 mm/hr 0.00 in0.0 mm
01:47 AM 58.3°F14.6°C 58.3°F14.6°C 100% 0.7 mph SW1.1 kmh SW 4.5 mph7.2 kmh 30.40 in1029.5 mb 0.00 in0.0 mm 0.00 in/hr0.0 mm/hr 0.00 in0.0 mm
01:46 AM 58.3°F14.6°C 58.3°F14.6°C 100% 0.7 mph SW1.1 kmh SW 6.0 mph9.7 kmh 30.40 in1029.5 mb 0.00 in0.0 mm 0.00 in/hr0.0 mm/hr 0.00 in0.0 mm
01:45 AM 58.3°F14.6°C 58.3°F14.6°C 100% 0.7 mph SW1.1 kmh SW 6.0 mph9.7 kmh 30.39 in1029.1 mb 0.00 in0.0 mm 0.00 in/hr0.0 mm/hr 0.00 in0.0 mm
01:44 AM 58.1°F14.5°C 58.1°F14.5°C 100% Calm Calm 7.6 mph12.2 kmh 30.39 in1029.1 mb 0.00 in0.0 mm 0.00 in/hr0.0 mm/hr 0.00 in0.0 mm
01:43 AM 58.1°F14.5°C 58.1°F14.5°C 100% Calm Calm 7.6 mph12.2 kmh 30.40 in1029.5 mb 0.00 in0.0 mm 0.00 in/hr0.0 mm/hr 0.00 in0.0 mm
01:42 AM 58.1°F14.5°C 58.1°F14.5°C 100% Calm Calm 7.6 mph12.2 kmh 30.40 in1029.5 mb 0.00 in0.0 mm 0.00 in/hr0.0 mm/hr 0.00 in0.0 mm
01:41 AM 58.1°F14.5°C 58.1°F14.5°C 100% Calm Calm 7.6 mph12.2 kmh 30.40 in1029.5 mb 0.00 in0.0 mm 0.00 in/hr0.0 mm/hr 0.00 in0.0 mm
01:40 AM 58.1°F14.5°C 58.1°F14.5°C 100% 0.7 mph SW1.1 kmh SW 7.6 mph12.2 kmh 30.40 in1029.5 mb 0.00 in0.0 mm 0.00 in/hr0.0 mm/hr 0.00 in0.0 mm
01:39 AM 58.1°F14.5°C 58.1°F14.5°C 100% Calm Calm 7.6 mph12.2 kmh 30.40 in1029.5 mb 0.00 in0.0 mm 0.00 in/hr0.0 mm/hr 0.00 in0.0 mm
01:38 AM 58.3°F14.6°C 58.3°F14.6°C 100% 0.7 mph SW1.1 kmh SW 7.6 mph12.2 kmh 30.40 in1029.5 mb 0.00 in0.0 mm 0.00 in/hr0.0 mm/hr 0.00 in0.0 mm
01:37 AM 58.1°F14.5°C 58.1°F14.5°C 100% 2.2 mph SW3.5 kmh SW 7.6 mph12.2 kmh 30.40 in1029.5 mb 0.00 in0.0 mm 0.00 in/hr0.0 mm/hr 0.00 in0.0 mm
01:36 AM 57.9°F14.4°C 57.9°F14.4°C 100% 1.6 mph SW2.6 kmh SW 7.6 mph12.2 kmh 30.39 in1029.1 mb 0.00 in0.0 mm 0.00 in/hr0.0 mm/hr 0.00 in0.0 mm
01:35 AM 57.9°F14.4°C 57.9°F14.4°C 100% 1.6 mph SW2.6 kmh SW 7.6 mph12.2 kmh 30.40 in1029.5 mb 0.00 in0.0 mm 0.00 in/hr0.0 mm/hr 0.00 in0.0 mm
01:34 AM 57.6°F14.2°C 57.6°F14.2°C 100% Calm Calm 4.5 mph7.2 kmh 30.39 in1029.1 mb 0.00 in0.0 mm 0.00 in/hr0.0 mm/hr 0.00 in0.0 mm
01:33 AM 57.6°F14.2°C 57.6°F14.2°C 100% 1.6 mph WSW2.6 kmh WSW 4.5 mph7.2 kmh 30.40 in1029.5 mb 0.00 in0.0 mm 0.00 in/hr0.0 mm/hr 0.00 in0.0 mm
01:32 AM 57.4°F14.1°C 57.4°F14.1°C 100% 0.7 mph WSW1.1 kmh WSW 4.5 mph7.2 kmh 30.40 in1029.5 mb 0.00 in0.0 mm 0.00 in/hr0.0 mm/hr 0.00 in0.0 mm
01:31 AM 57.4°F14.1°C 57.4°F14.1°C 100% Calm Calm 4.5 mph7.2 kmh 30.40 in1029.5 mb 0.00 in0.0 mm 0.00 in/hr0.0 mm/hr 0.00 in0.0 mm
01:30 AM 57.6°F14.2°C 57.6°F14.2°C 100% Calm Calm 4.5 mph7.2 kmh 30.40 in1029.5 mb 0.00 in0.0 mm 0.00 in/hr0.0 mm/hr 0.00 in0.0 mm
01:29 AM 57.6°F14.2°C 57.6°F14.2°C 100% 2.2 mph WSW3.5 kmh WSW 4.5 mph7.2 kmh 30.40 in1029.5 mb 0.00 in0.0 mm 0.00 in/hr0.0 mm/hr 0.00 in0.0 mm
01:28 AM 57.6°F14.2°C 57.6°F14.2°C 100% 2.2 mph WSW3.5 kmh WSW 4.5 mph7.2 kmh 30.40 in1029.5 mb 0.00 in0.0 mm 0.00 in/hr0.0 mm/hr 0.00 in0.0 mm
01:27 AM 57.6°F14.2°C 57.6°F14.2°C 100% 2.2 mph WSW3.5 kmh WSW 4.5 mph7.2 kmh 30.40 in1029.5 mb 0.00 in0.0 mm 0.00 in/hr0.0 mm/hr 0.00 in0.0 mm
01:26 AM 57.6°F14.2°C 57.6°F14.2°C 100% 2.2 mph WSW3.5 kmh WSW 4.5 mph7.2 kmh 30.40 in1029.5 mb 0.00 in0.0 mm 0.00 in/hr0.0 mm/hr 0.00 in0.0 mm
01:25 AM 57.6°F14.2°C 57.6°F14.2°C 100% 2.2 mph WSW3.5 kmh WSW 4.5 mph7.2 kmh 30.40 in1029.5 mb 0.00 in0.0 mm 0.00 in/hr0.0 mm/hr 0.00 in0.0 mm
01:24 AM 57.6°F14.2°C 57.6°F14.2°C 100% 2.2 mph SW3.5 kmh SW 4.5 mph7.2 kmh 30.40 in1029.5 mb 0.00 in0.0 mm 0.00 in/hr0.0 mm/hr 0.00 in0.0 mm
01:23 AM 57.6°F14.2°C 57.6°F14.2°C 100% 2.2 mph SW3.5 kmh SW 4.5 mph7.2 kmh 30.40 in1029.5 mb 0.00 in0.0 mm 0.00 in/hr0.0 mm/hr 0.00 in0.0 mm
01:22 AM 57.6°F14.2°C 57.6°F14.2°C 100% 2.2 mph SW3.5 kmh SW 4.5 mph7.2 kmh 30.40 in1029.5 mb 0.00 in0.0 mm 0.00 in/hr0.0 mm/hr 0.00 in0.0 mm
01:21 AM 57.6°F14.2°C 57.0°F13.9°C 98% 0.7 mph SW1.1 kmh SW 3.8 mph6.1 kmh 30.40 in1029.5 mb 0.00 in0.0 mm 0.00 in/hr0.0 mm/hr 0.00 in0.0 mm
01:20 AM 57.6°F14.2°C 57.0°F13.9°C 98% Calm Calm 3.8 mph6.1 kmh 30.40 in1029.5 mb 0.00 in0.0 mm 0.00 in/hr0.0 mm/hr 0.00 in0.0 mm
01:19 AM 57.6°F14.2°C 57.0°F13.9°C 98% 1.6 mph SW2.6 kmh SW 3.8 mph6.1 kmh 30.40 in1029.5 mb 0.00 in0.0 mm 0.00 in/hr0.0 mm/hr 0.00 in0.0 mm
01:18 AM 57.6°F14.2°C 57.0°F13.9°C 98% Calm Calm 3.8 mph6.1 kmh 30.40 in1029.5 mb 0.00 in0.0 mm 0.00 in/hr0.0 mm/hr 0.00 in0.0 mm
01:17 AM 57.7°F14.3°C 57.2°F14.0°C 98% Calm Calm 3.8 mph6.1 kmh 30.40 in1029.5 mb 0.00 in0.0 mm 0.00 in/hr0.0 mm/hr 0.00 in0.0 mm
01:16 AM 57.7°F14.3°C 57.2°F14.0°C 98% Calm Calm 3.8 mph6.1 kmh 30.40 in1029.5 mb 0.00 in0.0 mm 0.00 in/hr0.0 mm/hr 0.00 in0.0 mm
01:15 AM 57.7°F14.3°C 57.2°F14.0°C 98% 1.6 mph SW2.6 kmh SW 3.8 mph6.1 kmh 30.40 in1029.5 mb 0.00 in0.0 mm 0.00 in/hr0.0 mm/hr 0.00 in0.0 mm
01:14 AM 57.9°F14.4°C 57.4°F14.1°C 98% 0.7 mph SW1.1 kmh SW 3.8 mph6.1 kmh 30.40 in1029.5 mb 0.00 in0.0 mm 0.00 in/hr0.0 mm/hr 0.00 in0.0 mm
01:13 AM 57.9°F14.4°C 57.4°F14.1°C 98% 1.6 mph SW2.6 kmh SW 3.8 mph6.1 kmh 30.41 in1029.8 mb 0.00 in0.0 mm 0.00 in/hr0.0 mm/hr 0.00 in0.0 mm
01:12 AM 57.9°F14.4°C 57.4°F14.1°C 98% Calm Calm 3.8 mph6.1 kmh 30.40 in1029.5 mb 0.00 in0.0 mm 0.00 in/hr0.0 mm/hr 0.00 in0.0 mm
01:11 AM 57.9°F14.4°C 57.9°F14.4°C 100% 2.2 mph SW3.5 kmh SW 4.5 mph7.2 kmh 30.40 in1029.5 mb 0.00 in0.0 mm 0.00 in/hr0.0 mm/hr 0.00 in0.0 mm
01:10 AM 57.7°F14.3°C 57.8°F14.3°C 100% 1.6 mph SW2.6 kmh SW 4.5 mph7.2 kmh 30.40 in1029.5 mb 0.00 in0.0 mm 0.00 in/hr0.0 mm/hr 0.00 in0.0 mm
01:09 AM 57.9°F14.4°C 57.9°F14.4°C 100% Calm Calm 4.5 mph7.2 kmh 30.40 in1029.5 mb 0.00 in0.0 mm 0.00 in/hr0.0 mm/hr 0.00 in0.0 mm
01:08 AM 57.9°F14.4°C 57.9°F14.4°C 100% 0.7 mph SW1.1 kmh SW 4.5 mph7.2 kmh 30.40 in1029.5 mb 0.00 in0.0 mm 0.00 in/hr0.0 mm/hr 0.00 in0.0 mm
01:07 AM 57.9°F14.4°C 57.9°F14.4°C 100% Calm Calm 4.5 mph7.2 kmh 30.41 in1029.8 mb 0.00 in0.0 mm 0.00 in/hr0.0 mm/hr 0.00 in0.0 mm
01:06 AM 57.9°F14.4°C 57.9°F14.4°C 100% 0.7 mph SSW1.1 kmh SSW 4.5 mph7.2 kmh 30.40 in1029.5 mb 0.00 in0.0 mm 0.00 in/hr0.0 mm/hr 0.00 in0.0 mm
01:05 AM 57.7°F14.3°C 57.8°F14.3°C 100% 0.7 mph SW1.1 kmh SW 4.5 mph7.2 kmh 30.40 in1029.5 mb 0.00 in0.0 mm 0.00 in/hr0.0 mm/hr 0.00 in0.0 mm
01:04 AM 57.9°F14.4°C 57.9°F14.4°C 100% Calm Calm 4.5 mph7.2 kmh 30.40 in1029.5 mb 0.00 in0.0 mm 0.00 in/hr0.0 mm/hr 0.00 in0.0 mm
01:03 AM 58.1°F14.5°C 58.1°F14.5°C 100% Calm Calm 4.5 mph7.2 kmh 30.40 in1029.5 mb 0.00 in0.0 mm 0.00 in/hr0.0 mm/hr 0.00 in0.0 mm
01:02 AM 58.3°F14.6°C 58.3°F14.6°C 100% Calm Calm 4.5 mph7.2 kmh 30.40 in1029.5 mb 0.00 in0.0 mm 0.00 in/hr0.0 mm/hr 0.00 in0.0 mm
01:01 AM 58.1°F14.5°C 58.1°F14.5°C 100% 2.2 mph SW3.5 kmh SW 4.5 mph7.2 kmh 30.40 in1029.5 mb 0.00 in0.0 mm 0.00 in/hr0.0 mm/hr 0.00 in0.0 mm
01:00 AM 58.3°F14.6°C 58.3°F14.6°C 100% 0.7 mph SSW1.1 kmh SSW 4.5 mph7.2 kmh 30.40 in1029.5 mb 0.00 in0.0 mm 0.00 in/hr0.0 mm/hr 0.00 in0.0 mm
12:59 AM 57.9°F14.4°C 57.9°F14.4°C 100% 1.6 mph SSW2.6 kmh SSW 4.5 mph7.2 kmh 30.40 in1029.5 mb 0.00 in0.0 mm 0.00 in/hr0.0 mm/hr 0.00 in0.0 mm
12:58 AM 57.9°F14.4°C 57.9°F14.4°C 100% 1.6 mph SSW2.6 kmh SSW 4.5 mph7.2 kmh 30.40 in1029.5 mb 0.00 in0.0 mm 0.00 in/hr0.0 mm/hr 0.00 in0.0 mm
12:57 AM 57.0°F13.9°C 57.0°F13.9°C 100% 2.2 mph SW3.5 kmh SW 4.5 mph7.2 kmh 30.40 in1029.5 mb 0.00 in0.0 mm 0.00 in/hr0.0 mm/hr 0.00 in0.0 mm
12:56 AM 56.7°F13.7°C 56.7°F13.7°C 100% 0.7 mph SW1.1 kmh SW 4.5 mph7.2 kmh 30.40 in1029.5 mb 0.00 in0.0 mm 0.00 in/hr0.0 mm/hr 0.00 in0.0 mm
12:55 AM 56.5°F13.6°C 56.5°F13.6°C 100% Calm Calm 1.6 mph2.6 kmh 30.40 in1029.5 mb 0.00 in0.0 mm 0.00 in/hr0.0 mm/hr 0.00 in0.0 mm
12:54 AM 56.1°F13.4°C 56.1°F13.4°C 100% Calm Calm 0.7 mph1.1 kmh 30.40 in1029.5 mb 0.00 in0.0 mm 0.00 in/hr0.0 mm/hr 0.00 in0.0 mm
12:53 AM 56.1°F13.4°C 56.1°F13.4°C 100% Calm Calm 0.7 mph1.1 kmh 30.40 in1029.5 mb 0.00 in0.0 mm 0.00 in/hr0.0 mm/hr 0.00 in0.0 mm
12:52 AM 56.3°F13.5°C 56.3°F13.5°C 100% Calm Calm 0.7 mph1.1 kmh 30.40 in1029.5 mb 0.00 in0.0 mm 0.00 in/hr0.0 mm/hr 0.00 in0.0 mm
12:51 AM 56.3°F13.5°C 56.3°F13.5°C 100% Calm Calm 0.7 mph1.1 kmh 30.40 in1029.5 mb 0.00 in0.0 mm 0.00 in/hr0.0 mm/hr 0.00 in0.0 mm
12:50 AM 56.3°F13.5°C 56.3°F13.5°C 100% Calm Calm 0.7 mph1.1 kmh 30.40 in1029.5 mb 0.00 in0.0 mm 0.00 in/hr0.0 mm/hr 0.00 in0.0 mm
12:49 AM 56.3°F13.5°C 56.3°F13.5°C 100% Calm Calm -- 30.40 in1029.5 mb 0.00 in0.0 mm 0.00 in/hr0.0 mm/hr 0.00 in0.0 mm
12:48 AM 56.3°F13.5°C 56.3°F13.5°C 100% Calm Calm -- 30.40 in1029.5 mb 0.00 in0.0 mm 0.00 in/hr0.0 mm/hr 0.00 in0.0 mm
12:47 AM 56.5°F13.6°C 56.5°F13.6°C 100% Calm Calm -- 30.41 in1029.8 mb 0.00 in0.0 mm 0.00 in/hr0.0 mm/hr 0.00 in0.0 mm
12:46 AM 56.5°F13.6°C 56.5°F13.6°C 100% Calm Calm -- 30.41 in1029.8 mb 0.00 in0.0 mm 0.00 in/hr0.0 mm/hr 0.00 in0.0 mm
12:45 AM 56.5°F13.6°C 56.5°F13.6°C 100% Calm Calm -- 30.41 in1029.8 mb 0.00 in0.0 mm 0.00 in/hr0.0 mm/hr 0.00 in0.0 mm
12:44 AM 56.7°F13.7°C 56.7°F13.7°C 100% Calm Calm -- 30.41 in1029.8 mb 0.00 in0.0 mm 0.00 in/hr0.0 mm/hr 0.00 in0.0 mm
12:43 AM 56.7°F13.7°C 56.7°F13.7°C 100% Calm Calm -- 30.41 in1029.8 mb 0.00 in0.0 mm 0.00 in/hr0.0 mm/hr 0.00 in0.0 mm
12:42 AM 56.7°F13.7°C 56.7°F13.7°C 100% Calm Calm -- 30.41 in1029.8 mb 0.00 in0.0 mm 0.00 in/hr0.0 mm/hr 0.00 in0.0 mm
12:41 AM 56.7°F13.7°C 56.7°F13.7°C 100% Calm Calm -- 30.41 in1029.8 mb 0.00 in0.0 mm 0.00 in/hr0.0 mm/hr 0.00 in0.0 mm
12:40 AM 56.7°F13.7°C 56.7°F13.7°C 100% Calm Calm -- 30.42 in1030.1 mb 0.00 in0.0 mm 0.00 in/hr0.0 mm/hr 0.00 in0.0 mm
12:39 AM 56.5°F13.6°C 56.5°F13.6°C 100% Calm Calm -- 30.41 in1029.8 mb 0.00 in0.0 mm 0.00 in/hr0.0 mm/hr 0.00 in0.0 mm
12:38 AM 56.5°F13.6°C 56.5°F13.6°C 100% Calm Calm -- 30.41 in1029.8 mb 0.00 in0.0 mm 0.00 in/hr0.0 mm/hr 0.00 in0.0 mm
12:37 AM 56.5°F13.6°C 56.5°F13.6°C 100% Calm Calm -- 30.41 in1029.8 mb 0.00 in0.0 mm 0.00 in/hr0.0 mm/hr 0.00 in0.0 mm
12:36 AM 56.3°F13.5°C 56.3°F13.5°C 100% Calm Calm -- 30.41 in1029.8 mb 0.00 in0.0 mm 0.00 in/hr0.0 mm/hr 0.00 in0.0 mm
12:35 AM 56.3°F13.5°C 56.3°F13.5°C 100% Calm Calm -- 30.41 in1029.8 mb 0.00 in0.0 mm 0.00 in/hr0.0 mm/hr 0.00 in0.0 mm
12:34 AM 55.9°F13.3°C 56.0°F13.3°C 100% Calm Calm -- 30.42 in1030.1 mb 0.00 in0.0 mm 0.00 in/hr0.0 mm/hr 0.00 in0.0 mm
12:33 AM 55.9°F13.3°C 56.0°F13.3°C 100% Calm Calm -- 30.42 in1030.1 mb 0.00 in0.0 mm 0.00 in/hr0.0 mm/hr 0.00 in0.0 mm
12:32 AM 55.9°F13.3°C 56.0°F13.3°C 100% Calm Calm -- 30.42 in1030.1 mb 0.00 in0.0 mm 0.00 in/hr0.0 mm/hr 0.00 in0.0 mm
12:31 AM 55.9°F13.3°C 56.0°F13.3°C 100% Calm Calm -- 30.41 in1029.8 mb 0.00 in0.0 mm 0.00 in/hr0.0 mm/hr 0.00 in0.0 mm
12:30 AM 55.9°F13.3°C 56.0°F13.3°C 100% Calm Calm -- 30.41 in1029.8 mb 0.00 in0.0 mm 0.00 in/hr0.0 mm/hr 0.00 in0.0 mm
12:29 AM 56.1°F13.4°C 56.1°F13.4°C 100% Calm Calm -- 30.41 in1029.8 mb 0.00 in0.0 mm 0.00 in/hr0.0 mm/hr 0.00 in0.0 mm
12:28 AM 56.1°F13.4°C 56.1°F13.4°C 100% Calm Calm -- 30.42 in1030.1 mb 0.00 in0.0 mm 0.00 in/hr0.0 mm/hr 0.00 in0.0 mm
12:27 AM 56.1°F13.4°C 56.1°F13.4°C 100% Calm Calm -- 30.42 in1030.1 mb 0.00 in0.0 mm 0.00 in/hr0.0 mm/hr 0.00 in0.0 mm
12:26 AM 56.3°F13.5°C 56.3°F13.5°C 100% Calm Calm -- 30.41 in1029.8 mb 0.00 in0.0 mm 0.00 in/hr0.0 mm/hr 0.00 in0.0 mm
12:25 AM 56.3°F13.5°C 56.3°F13.5°C 100% Calm Calm -- 30.42 in1030.1 mb 0.00 in0.0 mm 0.00 in/hr0.0 mm/hr 0.00 in0.0 mm
12:24 AM 56.3°F13.5°C 56.3°F13.5°C 100% Calm Calm -- 30.42 in1030.1 mb 0.00 in0.0 mm 0.00 in/hr0.0 mm/hr 0.00 in0.0 mm
12:23 AM 56.3°F13.5°C 56.3°F13.5°C 100% Calm Calm -- 30.42 in1030.1 mb 0.00 in0.0 mm 0.00 in/hr0.0 mm/hr 0.00 in0.0 mm
12:22 AM 56.5°F13.6°C 56.5°F13.6°C 100% Calm Calm -- 30.42 in1030.1 mb 0.00 in0.0 mm 0.00 in/hr0.0 mm/hr 0.00 in0.0 mm
12:21 AM 56.5°F13.6°C 56.5°F13.6°C 100% Calm Calm -- 30.42 in1030.1 mb 0.00 in0.0 mm 0.00 in/hr0.0 mm/hr 0.00 in0.0 mm
12:20 AM 56.7°F13.7°C 56.7°F13.7°C 100% Calm Calm -- 30.42 in1030.1 mb 0.00 in0.0 mm 0.00 in/hr0.0 mm/hr 0.00 in0.0 mm
12:19 AM 56.7°F13.7°C 56.7°F13.7°C 100% Calm Calm -- 30.42 in1030.1 mb 0.00 in0.0 mm 0.00 in/hr0.0 mm/hr 0.00 in0.0 mm
12:18 AM 56.7°F13.7°C 56.7°F13.7°C 100% Calm Calm -- 30.42 in1030.1 mb 0.00 in0.0 mm 0.00 in/hr0.0 mm/hr 0.00 in0.0 mm
12:17 AM 56.7°F13.7°C 56.7°F13.7°C 100% Calm Calm -- 30.42 in1030.1 mb 0.00 in0.0 mm 0.00 in/hr0.0 mm/hr 0.00 in0.0 mm
12:16 AM 56.8°F13.8°C 56.9°F13.8°C 100% Calm Calm -- 30.43 in1030.5 mb 0.00 in0.0 mm 0.00 in/hr0.0 mm/hr 0.00 in0.0 mm
12:15 AM 56.8°F13.8°C 56.9°F13.8°C 100% Calm Calm -- 30.43 in1030.5 mb 0.00 in0.0 mm 0.00 in/hr0.0 mm/hr 0.00 in0.0 mm
12:14 AM 57.0°F13.9°C 57.0°F13.9°C 100% Calm Calm -- 30.43 in1030.5 mb 0.00 in0.0 mm 0.00 in/hr0.0 mm/hr 0.00 in0.0 mm
12:13 AM 57.0°F13.9°C 57.0°F13.9°C 100% Calm Calm -- 30.43 in1030.5 mb 0.00 in0.0 mm 0.00 in/hr0.0 mm/hr 0.00 in0.0 mm
12:12 AM 57.2°F14.0°C 57.2°F14.0°C 100% Calm Calm -- 30.43 in1030.5 mb 0.00 in0.0 mm 0.00 in/hr0.0 mm/hr 0.00 in0.0 mm
12:11 AM 57.0°F13.9°C 57.0°F13.9°C 100% Calm Calm -- 30.43 in1030.5 mb 0.00 in0.0 mm 0.00 in/hr0.0 mm/hr 0.00 in0.0 mm
12:10 AM 57.2°F14.0°C 57.2°F14.0°C 100% Calm Calm -- 30.43 in1030.5 mb 0.00 in0.0 mm 0.00 in/hr0.0 mm/hr 0.00 in0.0 mm
12:09 AM 57.2°F14.0°C 57.2°F14.0°C 100% Calm Calm -- 30.43 in1030.5 mb 0.00 in0.0 mm 0.00 in/hr0.0 mm/hr 0.00 in0.0 mm
12:08 AM 57.2°F14.0°C 57.2°F14.0°C 100% Calm Calm -- 30.43 in1030.5 mb 0.00 in0.0 mm 0.00 in/hr0.0 mm/hr 0.00 in0.0 mm
12:07 AM 57.2°F14.0°C 57.2°F14.0°C 100% Calm Calm -- 30.43 in1030.5 mb 0.00 in0.0 mm 0.00 in/hr0.0 mm/hr 0.00 in0.0 mm
12:06 AM 57.4°F14.1°C 57.4°F14.1°C 100% Calm Calm -- 30.43 in1030.5 mb 0.00 in0.0 mm 0.00 in/hr0.0 mm/hr 0.00 in0.0 mm
12:05 AM 57.4°F14.1°C 57.4°F14.1°C 100% Calm Calm -- 30.43 in1030.5 mb 0.00 in0.0 mm 0.00 in/hr0.0 mm/hr 0.00 in0.0 mm
12:04 AM 57.6°F14.2°C 57.6°F14.2°C 100% Calm Calm -- 30.43 in1030.5 mb 0.00 in0.0 mm 0.00 in/hr0.0 mm/hr 0.00 in0.0 mm
12:03 AM 57.6°F14.2°C 57.6°F14.2°C 100% Calm Calm -- 30.43 in1030.5 mb 0.00 in0.0 mm 0.00 in/hr0.0 mm/hr 0.00 in0.0 mm
12:02 AM 57.7°F14.3°C 57.8°F14.3°C 100% Calm Calm -- 30.43 in1030.5 mb 0.00 in0.0 mm 0.00 in/hr0.0 mm/hr 0.00 in0.0 mm
12:01 AM 57.7°F14.3°C 57.8°F14.3°C 100% Calm Calm -- 30.43 in1030.5 mb 0.00 in0.0 mm 0.00 in/hr0.0 mm/hr 0.00 in0.0 mm
12:00 AM 57.9°F14.4°C 57.9°F14.4°C 100% Calm Calm -- 30.43 in1030.5 mb 0.00 in0.0 mm 0.00 in/hr0.0 mm/hr 0.00 in0.0 mm